<?xml version='1.0' encoding='UTF-8'?><gpx version="1.1" creator="JPX - https://github.com/jenetics/jpx" xmlns="http://www.topografix.com/GPX/1/1"><trk><trkseg><trkpt lat="44.32746307318297" lon="10.837262237871368"><ele>678.0</ele><time>2026-05-01T08:30:29.998Z</time></trkpt><trkpt lat="44.32743936835894" lon="10.83717736296839"><ele>678.0</ele><time>2026-05-01T08:30:33.998Z</time></trkpt><trkpt lat="44.327530203188" lon="10.83712115629365"><ele>678.0</ele><time>2026-05-01T08:30:37.998Z</time></trkpt><trkpt lat="44.32760412560286" lon="10.837128816708582"><ele>678.0</ele><time>2026-05-01T08:30:38.998Z</time></trkpt><trkpt lat="44.32767096460085" lon="10.837103821487753"><ele>678.0</ele><time>2026-05-01T08:30:39.998Z</time></trkpt><trkpt lat="44.32770526352226" lon="10.836954514391357"><ele>678.0</ele><time>2026-05-01T08:30:41.998Z</time></trkpt><trkpt lat="44.3276706361052" lon="10.83683927339898"><ele>678.75</ele><time>2026-05-01T08:30:42.998Z</time></trkpt><trkpt lat="44.32762775828743" lon="10.836722391761276"><ele>679.5</ele><time>2026-05-01T08:30:43.998Z</time></trkpt><trkpt lat="44.327587075646804" lon="10.83658404692998"><ele>680.25</ele><time>2026-05-01T08:30:44.998Z</time></trkpt><trkpt lat="44.327535707399385" lon="10.836408879149912"><ele>681.0</ele><time>2026-05-01T08:30:45.998Z</time></trkpt><trkpt lat="44.327480238912436" lon="10.836211625378633"><ele>681.0</ele><time>2026-05-01T08:30:46.998Z</time></trkpt><trkpt lat="44.327414559827545" lon="10.83597747114934"><ele>681.0</ele><time>2026-05-01T08:30:47.998Z</time></trkpt><trkpt lat="44.327345078683464" lon="10.835793852630056"><ele>681.0</ele><time>2026-05-01T08:30:48.998Z</time></trkpt><trkpt lat="44.32728380169371" lon="10.835599017373442"><ele>681.5</ele><time>2026-05-01T08:30:50Z</time></trkpt><trkpt lat="44.32722870272148" lon="10.835414863069477"><ele>682.0</ele><time>2026-05-01T08:30:51Z</time></trkpt><trkpt lat="44.32717817333116" lon="10.83525854059527"><ele>682.5</ele><time>2026-05-01T08:30:52Z</time></trkpt><trkpt lat="44.327139447051415" lon="10.835128102942372"><ele>683.0</ele><time>2026-05-01T08:30:53Z</time></trkpt><trkpt lat="44.32709832455724" lon="10.835004314792046"><ele>683.75</ele><time>2026-05-01T08:30:54Z</time></trkpt><trkpt lat="44.327055546771064" lon="10.834892251601566"><ele>684.5</ele><time>2026-05-01T08:30:55Z</time></trkpt><trkpt lat="44.32700589916767" lon="10.834737181297259"><ele>685.25</ele><time>2026-05-01T08:30:56Z</time></trkpt><trkpt lat="44.32694147583799" lon="10.83452684755809"><ele>686.0</ele><time>2026-05-01T08:30:57Z</time></trkpt><trkpt lat="44.32686563356447" lon="10.834306202635403"><ele>683.6666666666666</ele><time>2026-05-01T08:30:58Z</time></trkpt><trkpt lat="44.32678660669537" lon="10.834087780050435"><ele>681.3333333333334</ele><time>2026-05-01T08:30:59Z</time></trkpt><trkpt lat="44.326723908785404" lon="10.833897312616884"><ele>679.0</ele><time>2026-05-01T08:31:00Z</time></trkpt><trkpt lat="44.32665228543918" lon="10.83369248858923"><ele>678.3333333333334</ele><time>2026-05-01T08:31:01Z</time></trkpt><trkpt lat="44.326576724850945" lon="10.833467925335901"><ele>677.6666666666666</ele><time>2026-05-01T08:31:02Z</time></trkpt><trkpt lat="44.32650139440029" lon="10.833233276274594"><ele>677.0</ele><time>2026-05-01T08:31:03Z</time></trkpt><trkpt lat="44.326419421225175" lon="10.833004255520493"><ele>677.0</ele><time>2026-05-01T08:31:04Z</time></trkpt><trkpt lat="44.32634749990904" lon="10.832783971227967"><ele>677.0</ele><time>2026-05-01T08:31:05Z</time></trkpt><trkpt lat="44.32627735638623" lon="10.832563914780868"><ele>677.0</ele><time>2026-05-01T08:31:06Z</time></trkpt><trkpt lat="44.326220525228926" lon="10.832350058114146"><ele>677.25</ele><time>2026-05-01T08:31:07Z</time></trkpt><trkpt lat="44.32617045802822" lon="10.832144902842332"><ele>677.5</ele><time>2026-05-01T08:31:08Z</time></trkpt><trkpt lat="44.326124555790905" lon="10.831948439760994"><ele>677.75</ele><time>2026-05-01T08:31:09Z</time></trkpt><trkpt lat="44.32608550354184" lon="10.831774897804548"><ele>678.0</ele><time>2026-05-01T08:31:10Z</time></trkpt><trkpt lat="44.326054926791905" lon="10.831615047919076"><ele>678.25</ele><time>2026-05-01T08:31:11Z</time></trkpt><trkpt lat="44.326035154165616" lon="10.8314326146512"><ele>678.5</ele><time>2026-05-01T08:31:12Z</time></trkpt><trkpt lat="44.32606359873772" lon="10.83123705384368"><ele>678.75</ele><time>2026-05-01T08:31:13Z</time></trkpt><trkpt lat="44.32608746851963" lon="10.831073533236495"><ele>679.0</ele><time>2026-05-01T08:31:13.999Z</time></trkpt><trkpt lat="44.32611565999653" lon="10.830945932419416"><ele>679.6</ele><time>2026-05-01T08:31:14.999Z</time></trkpt><trkpt lat="44.32612856083285" lon="10.83082489942149"><ele>680.2</ele><time>2026-05-01T08:31:15.999Z</time></trkpt><trkpt lat="44.32617647616339" lon="10.830749701210376"><ele>680.8000000000001</ele><time>2026-05-01T08:31:16.999Z</time></trkpt><trkpt lat="44.326334624858916" lon="10.830733003304834"><ele>681.4000000000001</ele><time>2026-05-01T08:31:18.999Z</time></trkpt><trkpt lat="44.3264411706836" lon="10.830763449477935"><ele>682.0</ele><time>2026-05-01T08:31:19.999Z</time></trkpt><trkpt lat="44.32655768597009" lon="10.830796560856257"><ele>682.0</ele><time>2026-05-01T08:31:20.999Z</time></trkpt><trkpt lat="44.326689063256126" lon="10.830813128058573"><ele>682.0</ele><time>2026-05-01T08:31:21.999Z</time></trkpt><trkpt lat="44.326798809598934" lon="10.830857324185148"><ele>682.0</ele><time>2026-05-01T08:31:22.999Z</time></trkpt><trkpt lat="44.32690623339689" lon="10.830884950958758"><ele>682.0</ele><time>2026-05-01T08:31:23.999Z</time></trkpt><trkpt lat="44.32702588346856" lon="10.830912718419757"><ele>682.0</ele><time>2026-05-01T08:31:24.999Z</time></trkpt><trkpt lat="44.32713847155819" lon="10.830939235736208"><ele>682.0</ele><time>2026-05-01T08:31:25.999Z</time></trkpt><trkpt lat="44.32725747359178" lon="10.830945047456654"><ele>682.0</ele><time>2026-05-01T08:31:26.999Z</time></trkpt><trkpt lat="44.32736932001278" lon="10.830975894013566"><ele>682.0</ele><time>2026-05-01T08:31:27.999Z</time></trkpt><trkpt lat="44.32748788183309" lon="10.830994769580807"><ele>681.25</ele><time>2026-05-01T08:31:28.999Z</time></trkpt><trkpt lat="44.327603482558494" lon="10.831013568081376"><ele>680.5</ele><time>2026-05-01T08:31:29.999Z</time></trkpt><trkpt lat="44.3277264010811" lon="10.831015711358498"><ele>679.75</ele><time>2026-05-01T08:31:30.999Z</time></trkpt><trkpt lat="44.32784893810748" lon="10.831034395002499"><ele>679.0</ele><time>2026-05-01T08:31:31.999Z</time></trkpt><trkpt lat="44.327972112740945" lon="10.831062655331749"><ele>679.25</ele><time>2026-05-01T08:31:32.999Z</time></trkpt><trkpt lat="44.32809314230562" lon="10.83108480585598"><ele>679.5</ele><time>2026-05-01T08:31:33.999Z</time></trkpt><trkpt lat="44.32821161934395" lon="10.831103451704484"><ele>679.75</ele><time>2026-05-01T08:31:34.999Z</time></trkpt><trkpt lat="44.328341989095264" lon="10.831120560470943"><ele>680.0</ele><time>2026-05-01T08:31:35.999Z</time></trkpt><trkpt lat="44.32848642907415" lon="10.83112785639154"><ele>680.0</ele><time>2026-05-01T08:31:36.999Z</time></trkpt><trkpt lat="44.328621143267085" lon="10.831152415455495"><ele>680.0</ele><time>2026-05-01T08:31:37.999Z</time></trkpt><trkpt lat="44.32874393193227" lon="10.83117136034633"><ele>680.0</ele><time>2026-05-01T08:31:38.999Z</time></trkpt><trkpt lat="44.3288765566652" lon="10.831184003267866"><ele>680.0</ele><time>2026-05-01T08:31:39.999Z</time></trkpt><trkpt lat="44.32902536078755" lon="10.831207902101593"><ele>680.25</ele><time>2026-05-01T08:31:40.999Z</time></trkpt><trkpt lat="44.329162391178365" lon="10.831230144927428"><ele>680.5</ele><time>2026-05-01T08:31:41.999Z</time></trkpt><trkpt lat="44.329295439251645" lon="10.8312472826444"><ele>680.75</ele><time>2026-05-01T08:31:42.999Z</time></trkpt><trkpt lat="44.32942780742779" lon="10.831264197447226"><ele>681.0</ele><time>2026-05-01T08:31:43.999Z</time></trkpt><trkpt lat="44.32955027892624" lon="10.831278925938783"><ele>681.0</ele><time>2026-05-01T08:31:44.999Z</time></trkpt><trkpt lat="44.329661708654875" lon="10.831316949410823"><ele>681.0</ele><time>2026-05-01T08:31:45.999Z</time></trkpt><trkpt lat="44.3297791142765" lon="10.831334882605018"><ele>681.0</ele><time>2026-05-01T08:31:46.999Z</time></trkpt><trkpt lat="44.329891766335095" lon="10.831351943765174"><ele>681.0</ele><time>2026-05-01T08:31:47.999Z</time></trkpt><trkpt lat="44.33000124899536" lon="10.831346106108832"><ele>680.75</ele><time>2026-05-01T08:31:48.999Z</time></trkpt><trkpt lat="44.33011843425143" lon="10.831363904228414"><ele>680.5</ele><time>2026-05-01T08:31:49.999Z</time></trkpt><trkpt lat="44.33026250752339" lon="10.831406990038213"><ele>680.25</ele><time>2026-05-01T08:31:50.999Z</time></trkpt><trkpt lat="44.33037853024305" lon="10.831424219018476"><ele>680.0</ele><time>2026-05-01T08:31:51.999Z</time></trkpt><trkpt lat="44.33047839344483" lon="10.831442151286652"><ele>679.3333333333333</ele><time>2026-05-01T08:31:52.999Z</time></trkpt><trkpt lat="44.33057858747914" lon="10.83142694051542"><ele>678.6666666666666</ele><time>2026-05-01T08:31:53.999Z</time></trkpt><trkpt lat="44.3306594911727" lon="10.831446688674916"><ele>678.0</ele><time>2026-05-01T08:31:54.999Z</time></trkpt><trkpt lat="44.33073442075181" lon="10.83146573113965"><ele>677.3333333333334</ele><time>2026-05-01T08:31:55.999Z</time></trkpt><trkpt lat="44.33080159199429" lon="10.83147612753532"><ele>676.6666666666667</ele><time>2026-05-01T08:31:56.999Z</time></trkpt><trkpt lat="44.330867565367576" lon="10.831489413872893"><ele>676.0</ele><time>2026-05-01T08:31:57.999Z</time></trkpt><trkpt lat="44.33094408620679" lon="10.831604897641995"><ele>676.0</ele><time>2026-05-01T08:31:59.999Z</time></trkpt><trkpt lat="44.330911730360874" lon="10.831711769448312"><ele>676.0</ele><time>2026-05-01T08:32:00.999Z</time></trkpt><trkpt lat="44.33093517437715" lon="10.831862191570181"><ele>676.0</ele><time>2026-05-01T08:32:01.999Z</time></trkpt><trkpt lat="44.33094520819883" lon="10.832035215650183"><ele>676.0</ele><time>2026-05-01T08:32:02.999Z</time></trkpt><trkpt lat="44.33094494536319" lon="10.832244250189317"><ele>676.1999999999999</ele><time>2026-05-01T08:32:03.999Z</time></trkpt><trkpt lat="44.33095523429621" lon="10.832417758278673"><ele>676.4</ele><time>2026-05-01T08:32:04.999Z</time></trkpt><trkpt lat="44.33096350350838" lon="10.83255682683279"><ele>676.6</ele><time>2026-05-01T08:32:05.999Z</time></trkpt><trkpt lat="44.3309709121411" lon="10.832682129367697"><ele>676.8</ele><time>2026-05-01T08:32:06.999Z</time></trkpt><trkpt lat="44.33097868701521" lon="10.83278640385236"><ele>677.0</ele><time>2026-05-01T08:32:07.999Z</time></trkpt><trkpt lat="44.33098836711717" lon="10.832893607667447"><ele>677.0</ele><time>2026-05-01T08:32:08.999Z</time></trkpt><trkpt lat="44.33101143063087" lon="10.833040124443622"><ele>677.0</ele><time>2026-05-01T08:32:10.999Z</time></trkpt><trkpt lat="44.33092651560191" lon="10.833200087409043"><ele>677.0</ele><time>2026-05-01T08:32:12.999Z</time></trkpt><trkpt lat="44.33083117023548" lon="10.833280360619414"><ele>677.0</ele><time>2026-05-01T08:32:13.999Z</time></trkpt><trkpt lat="44.33073569834656" lon="10.833345774271947"><ele>677.0</ele><time>2026-05-01T08:32:14.999Z</time></trkpt><trkpt lat="44.33065500420216" lon="10.833418472174259"><ele>677.0</ele><time>2026-05-01T08:32:15.999Z</time></trkpt><trkpt lat="44.33059492949933" lon="10.833474225787873"><ele>677.0</ele><time>2026-05-01T08:32:16.999Z</time></trkpt><trkpt lat="44.33051597902558" lon="10.83350227692174"><ele>677.0</ele><time>2026-05-01T08:32:18.999Z</time></trkpt><trkpt lat="44.33046004423006" lon="10.83340252081303"><ele>677.0</ele><time>2026-05-01T08:32:19.999Z</time></trkpt><trkpt lat="44.33042359239059" lon="10.833311096772404"><ele>677.0</ele><time>2026-05-01T08:32:20.999Z</time></trkpt><trkpt lat="44.3303706934997" lon="10.833198107989665"><ele>677.5</ele><time>2026-05-01T08:32:21.999Z</time></trkpt><trkpt lat="44.33032570960413" lon="10.833068349370242"><ele>678.0</ele><time>2026-05-01T08:32:22.999Z</time></trkpt><trkpt lat="44.33026213625627" lon="10.832964005479749"><ele>678.5</ele><time>2026-05-01T08:32:23.998Z</time></trkpt><trkpt lat="44.33022157843264" lon="10.832888957148532"><ele>679.0</ele><time>2026-05-01T08:32:24.998Z</time></trkpt><trkpt lat="44.33016371742069" lon="10.832838052344453"><ele>679.5</ele><time>2026-05-01T08:32:25.998Z</time></trkpt><trkpt lat="44.33005945292399" lon="10.832852202518268"><ele>680.0</ele><time>2026-05-01T08:32:26.998Z</time></trkpt><trkpt lat="44.32996016797616" lon="10.832817448689893"><ele>680.0</ele><time>2026-05-01T08:32:27.999Z</time></trkpt><trkpt lat="44.32986565390269" lon="10.83282562057388"><ele>680.0</ele><time>2026-05-01T08:32:28.999Z</time></trkpt><trkpt lat="44.32979394362118" lon="10.832811603322806"><ele>680.0</ele><time>2026-05-01T08:32:29.999Z</time></trkpt><trkpt lat="44.32972625346257" lon="10.832801295386455"><ele>680.0</ele><time>2026-05-01T08:32:30.999Z</time></trkpt><trkpt lat="44.32962433399644" lon="10.832828059839208"><ele>680.0</ele><time>2026-05-01T08:32:32.999Z</time></trkpt><trkpt lat="44.32959691222039" lon="10.832937544771932"><ele>680.0</ele><time>2026-05-01T08:32:34.999Z</time></trkpt><trkpt lat="44.329566674666005" lon="10.833033169046173"><ele>680.0</ele><time>2026-05-01T08:32:37.999Z</time></trkpt><trkpt lat="44.32957534151623" lon="10.832884797719569"><ele>680.0</ele><time>2026-05-01T08:33:37Z</time></trkpt><trkpt lat="44.32969531329192" lon="10.832825527053462"><ele>680.0</ele><time>2026-05-01T08:33:38Z</time></trkpt><trkpt lat="44.32984476371554" lon="10.832832769504817"><ele>680.0</ele><time>2026-05-01T08:33:40Z</time></trkpt><trkpt lat="44.32995837360616" lon="10.832851967329152"><ele>680.0</ele><time>2026-05-01T08:33:41Z</time></trkpt><trkpt lat="44.33006081156578" lon="10.832870822008845"><ele>680.0</ele><time>2026-05-01T08:33:42Z</time></trkpt><trkpt lat="44.33014762440119" lon="10.832885349397404"><ele>680.0</ele><time>2026-05-01T08:33:43Z</time></trkpt><trkpt lat="44.330216240964994" lon="10.832910441420358"><ele>680.0</ele><time>2026-05-01T08:33:44Z</time></trkpt><trkpt lat="44.3302660814706" lon="10.832984745142856"><ele>680.0</ele><time>2026-05-01T08:33:45Z</time></trkpt><trkpt lat="44.330312715471884" lon="10.833094818574141"><ele>680.0</ele><time>2026-05-01T08:33:46Z</time></trkpt><trkpt lat="44.33035572952122" lon="10.833224243706495"><ele>680.0</ele><time>2026-05-01T08:33:47Z</time></trkpt><trkpt lat="44.330401013124046" lon="10.833334094846435"><ele>680.0</ele><time>2026-05-01T08:33:48Z</time></trkpt><trkpt lat="44.330435975124956" lon="10.833412967079683"><ele>680.0</ele><time>2026-05-01T08:33:49Z</time></trkpt><trkpt lat="44.330473126508195" lon="10.83349677842746"><ele>680.0</ele><time>2026-05-01T08:33:51Z</time></trkpt><trkpt lat="44.33040286234522" lon="10.833628834409426"><ele>680.0</ele><time>2026-05-01T08:34:00Z</time></trkpt><trkpt lat="44.330322663079926" lon="10.833699037007138"><ele>680.0</ele><time>2026-05-01T08:34:01Z</time></trkpt><trkpt lat="44.3302250909512" lon="10.83378444697624"><ele>679.8333333333333</ele><time>2026-05-01T08:34:02Z</time></trkpt><trkpt lat="44.330148033389364" lon="10.833851899475231"><ele>679.6666666666666</ele><time>2026-05-01T08:34:03Z</time></trkpt><trkpt lat="44.33009163075681" lon="10.833901271639014"><ele>679.5</ele><time>2026-05-01T08:34:04Z</time></trkpt><trkpt lat="44.330034526021" lon="10.83396070565249"><ele>679.3333333333334</ele><time>2026-05-01T08:34:05Z</time></trkpt><trkpt lat="44.32995485280897" lon="10.833995833126458"><ele>679.1666666666667</ele><time>2026-05-01T08:34:06Z</time></trkpt><trkpt lat="44.32987435742291" lon="10.83401176213864"><ele>679.0</ele><time>2026-05-01T08:34:07Z</time></trkpt><trkpt lat="44.32980999598564" lon="10.83406222622863"><ele>679.0</ele><time>2026-05-01T08:34:08Z</time></trkpt><trkpt lat="44.32975875935748" lon="10.834123892232178"><ele>679.0</ele><time>2026-05-01T08:34:09Z</time></trkpt><trkpt lat="44.32974839677886" lon="10.83425168154632"><ele>679.0</ele><time>2026-05-01T08:34:10Z</time></trkpt><trkpt lat="44.32971720720154" lon="10.834334739719184"><ele>679.0</ele><time>2026-05-01T08:34:11Z</time></trkpt><trkpt lat="44.32967524198632" lon="10.834514775394487"><ele>679.0</ele><time>2026-05-01T08:34:13Z</time></trkpt><trkpt lat="44.329643390303126" lon="10.834651422851909"><ele>679.1666666666667</ele><time>2026-05-01T08:34:15Z</time></trkpt><trkpt lat="44.329622723514746" lon="10.834741205420338"><ele>679.3333333333334</ele><time>2026-05-01T08:34:16Z</time></trkpt><trkpt lat="44.32960178299715" lon="10.834832018184061"><ele>679.5</ele><time>2026-05-01T08:34:17Z</time></trkpt><trkpt lat="44.32958214202429" lon="10.83491567748038"><ele>679.6666666666666</ele><time>2026-05-01T08:34:18Z</time></trkpt><trkpt lat="44.32955954852453" lon="10.835012676639959"><ele>679.8333333333333</ele><time>2026-05-01T08:34:19Z</time></trkpt><trkpt lat="44.3295442009466" lon="10.835149312220052"><ele>680.0</ele><time>2026-05-01T08:34:21Z</time></trkpt><trkpt lat="44.32949844163689" lon="10.835276118363256"><ele>679.6</ele><time>2026-05-01T08:34:22.999Z</time></trkpt><trkpt lat="44.32947737123824" lon="10.835367483199606"><ele>679.2</ele><time>2026-05-01T08:34:23.999Z</time></trkpt><trkpt lat="44.32945844991516" lon="10.835519032194592"><ele>678.8</ele><time>2026-05-01T08:34:24.999Z</time></trkpt><trkpt lat="44.329419592540404" lon="10.83568761301771"><ele>678.4</ele><time>2026-05-01T08:34:25.999Z</time></trkpt><trkpt lat="44.32938672569426" lon="10.835830649364139"><ele>678.0</ele><time>2026-05-01T08:34:26.999Z</time></trkpt><trkpt lat="44.32934728535072" lon="10.835928256574132"><ele>677.8571428571428</ele><time>2026-05-01T08:34:27.999Z</time></trkpt><trkpt lat="44.32933897435932" lon="10.836026908672828"><ele>677.7142857142858</ele><time>2026-05-01T08:34:28.999Z</time></trkpt><trkpt lat="44.3293165551404" lon="10.836131055083701"><ele>677.5714285714286</ele><time>2026-05-01T08:34:29.999Z</time></trkpt><trkpt lat="44.32929646070768" lon="10.836218620572394"><ele>677.4285714285713</ele><time>2026-05-01T08:34:30.999Z</time></trkpt><trkpt lat="44.32927583420744" lon="10.836313828368217"><ele>677.2857142857142</ele><time>2026-05-01T08:34:34.999Z</time></trkpt><trkpt lat="44.32923732830651" lon="10.83639317827413"><ele>677.1428571428571</ele><time>2026-05-01T08:34:36.999Z</time></trkpt><trkpt lat="44.32922009460549" lon="10.836487056716361"><ele>677.0</ele><time>2026-05-01T08:34:38.999Z</time></trkpt><trkpt lat="44.32917315967753" lon="10.836608955764847"><ele>677.0</ele><time>2026-05-01T08:34:42.999Z</time></trkpt><trkpt lat="44.32908871549149" lon="10.836728893071683"><ele>677.0</ele><time>2026-05-01T08:34:44.999Z</time></trkpt><trkpt lat="44.32902777128241" lon="10.836845278914653"><ele>677.0</ele><time>2026-05-01T08:34:46.999Z</time></trkpt><trkpt lat="44.32896925787852" lon="10.836883216212422"><ele>677.0</ele><time>2026-05-01T08:34:47.999Z</time></trkpt><trkpt lat="44.32883487736811" lon="10.836924450994783"><ele>677.0</ele><time>2026-05-01T08:34:49.999Z</time></trkpt><trkpt lat="44.32875936263374" lon="10.83694330773153"><ele>677.2</ele><time>2026-05-01T08:34:50.999Z</time></trkpt><trkpt lat="44.32864598362711" lon="10.836954833753444"><ele>677.4000000000001</ele><time>2026-05-01T08:34:52.999Z</time></trkpt><trkpt lat="44.32855801436875" lon="10.83696799530897"><ele>677.5999999999999</ele><time>2026-05-01T08:34:55.999Z</time></trkpt><trkpt lat="44.328493282711705" lon="10.836977531641137"><ele>677.8</ele><time>2026-05-01T08:34:57.999Z</time></trkpt><trkpt lat="44.32855991632948" lon="10.837034925555107"><ele>678.0</ele><time>2026-05-01T08:35:51.999Z</time></trkpt><trkpt lat="44.32831854635535" lon="10.836848429112548"><ele>678.0</ele><time>2026-05-01T08:35:55.999Z</time></trkpt><trkpt lat="44.32824296681104" lon="10.837019665079508"><ele>678.0</ele><time>2026-05-01T08:35:56.999Z</time></trkpt><trkpt lat="44.32814141461679" lon="10.837032952572512"><ele>678.0</ele><time>2026-05-01T08:35:57.999Z</time></trkpt><trkpt lat="44.328042016116235" lon="10.83704683161817"><ele>678.0</ele><time>2026-05-01T08:35:58.999Z</time></trkpt><trkpt lat="44.327969139541224" lon="10.837063969841354"><ele>678.0</ele><time>2026-05-01T08:35:59.999Z</time></trkpt><trkpt lat="44.32787253858212" lon="10.837086349454335"><ele>678.0</ele><time>2026-05-01T08:36:00.999Z</time></trkpt><trkpt lat="44.327766870077426" lon="10.837097582381263"><ele>678.0</ele><time>2026-05-01T08:36:01.999Z</time></trkpt><trkpt lat="44.3276714823447" lon="10.837105038542909"><ele>678.0</ele><time>2026-05-01T08:36:02.999Z</time></trkpt><trkpt lat="44.32759159085056" lon="10.837119104665208"><ele>678.0</ele><time>2026-05-01T08:36:03.999Z</time></trkpt><trkpt lat="44.327489492477774" lon="10.837145878763254"><ele>678.0</ele><time>2026-05-01T08:36:05.999Z</time></trkpt><trkpt lat="44.327438258902255" lon="10.837370996192082"><ele>678.0</ele><time>2026-05-01T08:36:08.999Z</time></trkpt><trkpt lat="44.327450195107055" lon="10.837502595204628"><ele>678.0</ele><time>2026-05-01T08:36:09.999Z</time></trkpt><trkpt lat="44.327464463284215" lon="10.83765365817826"><ele>678.0</ele><time>2026-05-01T08:36:10.999Z</time></trkpt><trkpt lat="44.32747935430034" lon="10.837811315382115"><ele>678.0</ele><time>2026-05-01T08:36:11.999Z</time></trkpt><trkpt lat="44.327498760024795" lon="10.837930850741389"><ele>678.0</ele><time>2026-05-01T08:36:12.999Z</time></trkpt><trkpt lat="44.32749969031317" lon="10.838026620985024"><ele>678.0</ele><time>2026-05-01T08:36:13.999Z</time></trkpt><trkpt lat="44.327508559241906" lon="10.83812051993443"><ele>678.0</ele><time>2026-05-01T08:36:14.999Z</time></trkpt><trkpt lat="44.3275472084924" lon="10.838207049837203"><ele>678.0</ele><time>2026-05-01T08:36:16.999Z</time></trkpt><trkpt lat="44.327602809510175" lon="10.838288813272097"><ele>678.0</ele><time>2026-05-01T08:36:19.999Z</time></trkpt><trkpt lat="44.32765539061264" lon="10.838352288209133"><ele>678.0</ele><time>2026-05-01T08:36:20.999Z</time></trkpt><trkpt lat="44.32767014703522" lon="10.838450022158469"><ele>678.0</ele><time>2026-05-01T08:36:21.999Z</time></trkpt><trkpt lat="44.32768339048507" lon="10.83857959002229"><ele>678.0</ele><time>2026-05-01T08:36:23.999Z</time></trkpt><trkpt lat="44.32755555669025" lon="10.838612637035645"><ele>678.0</ele><time>2026-05-01T08:36:24.999Z</time></trkpt><trkpt lat="44.32750151701414" lon="10.838680056846036"><ele>678.0</ele><time>2026-05-01T08:36:25.999Z</time></trkpt><trkpt lat="44.327418795213134" lon="10.838745454428548"><ele>678.0</ele><time>2026-05-01T08:36:26.999Z</time></trkpt><trkpt lat="44.327307689152036" lon="10.838828242996964"><ele>678.0</ele><time>2026-05-01T08:36:27.999Z</time></trkpt><trkpt lat="44.327179688166524" lon="10.838931584137635"><ele>678.0</ele><time>2026-05-01T08:36:28.999Z</time></trkpt><trkpt lat="44.327028943166255" lon="10.839041744851707"><ele>678.0</ele><time>2026-05-01T08:36:29.999Z</time></trkpt><trkpt lat="44.32689511306945" lon="10.839144613368875"><ele>678.0</ele><time>2026-05-01T08:36:30.999Z</time></trkpt><trkpt lat="44.32680656604113" lon="10.839222822644249"><ele>678.0</ele><time>2026-05-01T08:36:31.999Z</time></trkpt><trkpt lat="44.32673161925487" lon="10.839296257388428"><ele>678.2</ele><time>2026-05-01T08:36:32.999Z</time></trkpt><trkpt lat="44.32666500458184" lon="10.839361254267311"><ele>678.4</ele><time>2026-05-01T08:36:33.999Z</time></trkpt><trkpt lat="44.326585325621465" lon="10.839414887847763"><ele>678.6</ele><time>2026-05-01T08:36:34.999Z</time></trkpt><trkpt lat="44.3265406792545" lon="10.839486555925314"><ele>678.8000000000001</ele><time>2026-05-01T08:36:35.999Z</time></trkpt><trkpt lat="44.32649356053149" lon="10.839582105463181"><ele>679.0</ele><time>2026-05-01T08:36:37.999Z</time></trkpt><trkpt lat="44.32662903728046" lon="10.839704468569895"><ele>679.0</ele><time>2026-05-01T08:36:38.999Z</time></trkpt><trkpt lat="44.326719764546894" lon="10.839762582942058"><ele>679.0</ele><time>2026-05-01T08:36:39.999Z</time></trkpt><trkpt lat="44.32681897977799" lon="10.839833402618437"><ele>679.0</ele><time>2026-05-01T08:36:40.999Z</time></trkpt><trkpt lat="44.32692591780334" lon="10.839916296142631"><ele>679.0</ele><time>2026-05-01T08:36:41.999Z</time></trkpt><trkpt lat="44.32701533584187" lon="10.839985951195594"><ele>679.0</ele><time>2026-05-01T08:36:42.999Z</time></trkpt><trkpt lat="44.32709847001338" lon="10.840056138744206"><ele>679.2</ele><time>2026-05-01T08:36:43.999Z</time></trkpt><trkpt lat="44.32717490982793" lon="10.840136317994077"><ele>679.4000000000001</ele><time>2026-05-01T08:36:44.999Z</time></trkpt><trkpt lat="44.3272480598788" lon="10.840236985486415"><ele>679.6</ele><time>2026-05-01T08:36:45.999Z</time></trkpt><trkpt lat="44.32732440256332" lon="10.840356737021724"><ele>679.8</ele><time>2026-05-01T08:36:46.999Z</time></trkpt><trkpt lat="44.327393640348745" lon="10.840461703708407"><ele>680.0</ele><time>2026-05-01T08:36:47.999Z</time></trkpt><trkpt lat="44.32745005212053" lon="10.840536876812918"><ele>680.3333333333333</ele><time>2026-05-01T08:36:48.999Z</time></trkpt><trkpt lat="44.32749625231483" lon="10.840626923291012"><ele>680.6666666666666</ele><time>2026-05-01T08:36:49.999Z</time></trkpt><trkpt lat="44.32758142029501" lon="10.840646305255097"><ele>681.0</ele><time>2026-05-01T08:36:50.999Z</time></trkpt><trkpt lat="44.32766112049509" lon="10.840691445588275"><ele>681.3333333333334</ele><time>2026-05-01T08:36:52.998Z</time></trkpt><trkpt lat="44.327727299861905" lon="10.840778388204079"><ele>681.6666666666667</ele><time>2026-05-01T08:36:54.998Z</time></trkpt><trkpt lat="44.327807320016134" lon="10.840810446140255"><ele>682.0</ele><time>2026-05-01T08:36:55.998Z</time></trkpt><trkpt lat="44.32793048122833" lon="10.840849150029564"><ele>682.0</ele><time>2026-05-01T08:36:56.998Z</time></trkpt><trkpt lat="44.328044538743576" lon="10.84089481472189"><ele>682.0</ele><time>2026-05-01T08:36:57.998Z</time></trkpt><trkpt lat="44.32812802598189" lon="10.840924577057962"><ele>682.0</ele><time>2026-05-01T08:36:58.998Z</time></trkpt><trkpt lat="44.328194668281" lon="10.840939849333322"><ele>682.0</ele><time>2026-05-01T08:36:59.998Z</time></trkpt><trkpt lat="44.32827241837533" lon="10.840982007924394"><ele>682.0</ele><time>2026-05-01T08:37:01.998Z</time></trkpt><trkpt lat="44.32831913597145" lon="10.840696461978107"><ele>682.4000000000001</ele><time>2026-05-01T08:37:03.998Z</time></trkpt><trkpt lat="44.32833745382794" lon="10.840550485910372"><ele>682.8000000000001</ele><time>2026-05-01T08:37:04.998Z</time></trkpt><trkpt lat="44.328362748020965" lon="10.840406131748622"><ele>683.2</ele><time>2026-05-01T08:37:05.998Z</time></trkpt><trkpt lat="44.32838398123345" lon="10.840278607780279"><ele>683.6</ele><time>2026-05-01T08:37:07Z</time></trkpt><trkpt lat="44.328399300828075" lon="10.84017674819049"><ele>684.0</ele><time>2026-05-01T08:37:08Z</time></trkpt><trkpt lat="44.32843182346755" lon="10.84008476801006"><ele>684.0</ele><time>2026-05-01T08:37:10Z</time></trkpt><trkpt lat="44.32853626187458" lon="10.840108428304374"><ele>684.0</ele><time>2026-05-01T08:37:13Z</time></trkpt><trkpt lat="44.328604113693416" lon="10.840113132696185"><ele>684.0</ele><time>2026-05-01T08:37:14Z</time></trkpt><trkpt lat="44.328680240061516" lon="10.840116888238196"><ele>684.0</ele><time>2026-05-01T08:37:15Z</time></trkpt><trkpt lat="44.328763146863636" lon="10.840121084868116"><ele>684.0</ele><time>2026-05-01T08:37:16Z</time></trkpt><trkpt lat="44.32884268552285" lon="10.840103612956652"><ele>684.0</ele><time>2026-05-01T08:37:17Z</time></trkpt><trkpt lat="44.32896423147253" lon="10.840117519364275"><ele>685.25</ele><time>2026-05-01T08:37:18Z</time></trkpt><trkpt lat="44.3290961921354" lon="10.840141387286257"><ele>686.5</ele><time>2026-05-01T08:37:19Z</time></trkpt><trkpt lat="44.329212029333284" lon="10.840215431872604"><ele>687.75</ele><time>2026-05-01T08:37:20Z</time></trkpt><trkpt lat="44.329323547049874" lon="10.8402739257812"><ele>689.0</ele><time>2026-05-01T08:37:21Z</time></trkpt><trkpt lat="44.32945276495899" lon="10.840325163859227"><ele>689.0</ele><time>2026-05-01T08:37:22Z</time></trkpt><trkpt lat="44.329579290770255" lon="10.84040238168421"><ele>689.0</ele><time>2026-05-01T08:37:23Z</time></trkpt><trkpt lat="44.3297173450938" lon="10.8404941882995"><ele>689.0</ele><time>2026-05-01T08:37:24Z</time></trkpt><trkpt lat="44.3298506908671" lon="10.840577609211469"><ele>689.0</ele><time>2026-05-01T08:37:25Z</time></trkpt><trkpt lat="44.329963593050756" lon="10.84063693378564"><ele>690.0</ele><time>2026-05-01T08:37:26Z</time></trkpt><trkpt lat="44.33006191741245" lon="10.840675421335622"><ele>691.0</ele><time>2026-05-01T08:37:27Z</time></trkpt><trkpt lat="44.33016319917727" lon="10.840704350692297"><ele>692.0</ele><time>2026-05-01T08:37:28Z</time></trkpt><trkpt lat="44.33027844794132" lon="10.840646334012977"><ele>693.0</ele><time>2026-05-01T08:37:29Z</time></trkpt><trkpt lat="44.330375838793266" lon="10.840616435016072"><ele>694.0</ele><time>2026-05-01T08:37:30Z</time></trkpt><trkpt lat="44.330437885832566" lon="10.840597374438788"><ele>694.0</ele><time>2026-05-01T08:37:31Z</time></trkpt><trkpt lat="44.33051129615386" lon="10.840585060922411"><ele>694.0</ele><time>2026-05-01T08:37:33Z</time></trkpt><trkpt lat="44.33058718306181" lon="10.840589330360354"><ele>694.0</ele><time>2026-05-01T08:37:36Z</time></trkpt><trkpt lat="44.3306430883389" lon="10.840772322536083"><ele>694.0</ele><time>2026-05-01T08:37:44Z</time></trkpt><trkpt lat="44.33068089732664" lon="10.840864368999398"><ele>694.0</ele><time>2026-05-01T08:37:45Z</time></trkpt><trkpt lat="44.33072831443324" lon="10.840949011043062"><ele>694.0</ele><time>2026-05-01T08:37:46Z</time></trkpt><trkpt lat="44.33078694995913" lon="10.84101201092304"><ele>695.2</ele><time>2026-05-01T08:37:47Z</time></trkpt><trkpt lat="44.33085601393866" lon="10.841062069211105"><ele>696.4000000000001</ele><time>2026-05-01T08:37:48Z</time></trkpt><trkpt lat="44.33093321977495" lon="10.841098304266815"><ele>697.6</ele><time>2026-05-01T08:37:49Z</time></trkpt><trkpt lat="44.33099450948498" lon="10.841119897720645"><ele>698.8</ele><time>2026-05-01T08:37:50Z</time></trkpt><trkpt lat="44.331091219242744" lon="10.840930780145722"><ele>700.0</ele><time>2026-05-01T08:37:53Z</time></trkpt><trkpt lat="44.331133944416926" lon="10.840837118594008"><ele>701.25</ele><time>2026-05-01T08:37:54Z</time></trkpt><trkpt lat="44.33119119521439" lon="10.840713964839441"><ele>702.5</ele><time>2026-05-01T08:37:55Z</time></trkpt><trkpt lat="44.33122711308337" lon="10.840624518841047"><ele>703.75</ele><time>2026-05-01T08:37:56Z</time></trkpt><trkpt lat="44.33127796913796" lon="10.840491680943314"><ele>705.0</ele><time>2026-05-01T08:37:59Z</time></trkpt><trkpt lat="44.331484185757965" lon="10.840545762057962"><ele>706.3333333333334</ele><time>2026-05-01T08:38:02Z</time></trkpt><trkpt lat="44.331559687553025" lon="10.840562115116143"><ele>707.6666666666666</ele><time>2026-05-01T08:38:03Z</time></trkpt><trkpt lat="44.33162113962443" lon="10.840541070763887"><ele>709.0</ele><time>2026-05-01T08:38:04Z</time></trkpt><trkpt lat="44.331734954117735" lon="10.840532013136421"><ele>710.3333333333333</ele><time>2026-05-01T08:38:05Z</time></trkpt><trkpt lat="44.331833464971254" lon="10.840531259480892"><ele>711.6666666666666</ele><time>2026-05-01T08:38:06Z</time></trkpt><trkpt lat="44.3319149906974" lon="10.840510835716023"><ele>713.0</ele><time>2026-05-01T08:38:07Z</time></trkpt><trkpt lat="44.3320082791265" lon="10.840480528878624"><ele>713.0</ele><time>2026-05-01T08:38:09Z</time></trkpt><trkpt lat="44.33207675911385" lon="10.8404660050139"><ele>713.0</ele><time>2026-05-01T08:38:10Z</time></trkpt><trkpt lat="44.33219546729064" lon="10.840457914924276"><ele>713.0</ele><time>2026-05-01T08:38:12Z</time></trkpt><trkpt lat="44.33227907851559" lon="10.84040592913717"><ele>713.0</ele><time>2026-05-01T08:38:13Z</time></trkpt><trkpt lat="44.33238295890201" lon="10.840359919253274"><ele>713.0</ele><time>2026-05-01T08:38:14Z</time></trkpt><trkpt lat="44.33245585789991" lon="10.840348528202306"><ele>716.25</ele><time>2026-05-01T08:38:16Z</time></trkpt><trkpt lat="44.332564047206986" lon="10.840324787193499"><ele>719.5</ele><time>2026-05-01T08:38:18Z</time></trkpt><trkpt lat="44.33268055134016" lon="10.840327187685551"><ele>722.75</ele><time>2026-05-01T08:38:20Z</time></trkpt><trkpt lat="44.332803538477386" lon="10.840313469477966"><ele>726.0</ele><time>2026-05-01T08:38:22Z</time></trkpt><trkpt lat="44.33292553019096" lon="10.84032866694347"><ele>726.0</ele><time>2026-05-01T08:38:23.999Z</time></trkpt><trkpt lat="44.33304563220827" lon="10.840399549772439"><ele>726.0</ele><time>2026-05-01T08:38:25.999Z</time></trkpt><trkpt lat="44.333157744381175" lon="10.84048596191725"><ele>726.0</ele><time>2026-05-01T08:38:27.999Z</time></trkpt><trkpt lat="44.33321833382468" lon="10.840530168192467"><ele>726.0</ele><time>2026-05-01T08:38:28.999Z</time></trkpt><trkpt lat="44.333324003601945" lon="10.840568732542124"><ele>726.0</ele><time>2026-05-01T08:38:30.999Z</time></trkpt><trkpt lat="44.3333989910957" lon="10.840567775861137"><ele>728.75</ele><time>2026-05-01T08:38:32.999Z</time></trkpt><trkpt lat="44.33350793233013" lon="10.840642747192074"><ele>731.5</ele><time>2026-05-01T08:38:34.999Z</time></trkpt><trkpt lat="44.333585141696055" lon="10.840711623710906"><ele>734.25</ele><time>2026-05-01T08:38:35.999Z</time></trkpt><trkpt lat="44.33369636536744" lon="10.840810301834303"><ele>737.0</ele><time>2026-05-01T08:38:36.999Z</time></trkpt><trkpt lat="44.33379535385515" lon="10.840884261723357"><ele>737.4000000000001</ele><time>2026-05-01T08:38:37.999Z</time></trkpt><trkpt lat="44.33389462235433" lon="10.840932697462621"><ele>737.8000000000001</ele><time>2026-05-01T08:38:38.999Z</time></trkpt><trkpt lat="44.33397553015549" lon="10.840994461544"><ele>738.2</ele><time>2026-05-01T08:38:39.999Z</time></trkpt><trkpt lat="44.33405705646396" lon="10.841056542885509"><ele>738.6</ele><time>2026-05-01T08:38:40.999Z</time></trkpt><trkpt lat="44.33413154931822" lon="10.841100991023236"><ele>739.0</ele><time>2026-05-01T08:38:41.999Z</time></trkpt><trkpt lat="44.334226380047774" lon="10.84113586970964"><ele>739.8000000000001</ele><time>2026-05-01T08:38:42.999Z</time></trkpt><trkpt lat="44.33432750288525" lon="10.841158610834299"><ele>740.6</ele><time>2026-05-01T08:38:43.999Z</time></trkpt><trkpt lat="44.33443057014353" lon="10.841194953592018"><ele>741.4</ele><time>2026-05-01T08:38:44.999Z</time></trkpt><trkpt lat="44.33451986545114" lon="10.841240080157746"><ele>742.2</ele><time>2026-05-01T08:38:45.999Z</time></trkpt><trkpt lat="44.33458428682625" lon="10.841280881385586"><ele>743.0</ele><time>2026-05-01T08:38:46.999Z</time></trkpt><trkpt lat="44.33467555135486" lon="10.841337301548439"><ele>745.4</ele><time>2026-05-01T08:38:47.999Z</time></trkpt><trkpt lat="44.33473735877776" lon="10.841388261739823"><ele>747.8</ele><time>2026-05-01T08:38:48.999Z</time></trkpt><trkpt lat="44.334835376872306" lon="10.84152465173616"><ele>750.2</ele><time>2026-05-01T08:38:50.999Z</time></trkpt><trkpt lat="44.334886765992714" lon="10.841602771180865"><ele>752.6</ele><time>2026-05-01T08:38:51.999Z</time></trkpt><trkpt lat="44.33497920217886" lon="10.841719200960313"><ele>755.0</ele><time>2026-05-01T08:38:53.999Z</time></trkpt><trkpt lat="44.335045310821904" lon="10.841817121796389"><ele>756.8</ele><time>2026-05-01T08:38:55.999Z</time></trkpt><trkpt lat="44.33509852899138" lon="10.841877813787203"><ele>758.6</ele><time>2026-05-01T08:38:56.999Z</time></trkpt><trkpt lat="44.33513830922674" lon="10.84195764231063"><ele>760.4000000000001</ele><time>2026-05-01T08:38:57.999Z</time></trkpt><trkpt lat="44.335249344465865" lon="10.842013246891097"><ele>762.2</ele><time>2026-05-01T08:38:59.999Z</time></trkpt><trkpt lat="44.33528994141925" lon="10.84212242678916"><ele>764.0</ele><time>2026-05-01T08:39:01.999Z</time></trkpt><trkpt lat="44.33523017867027" lon="10.84227417586116"><ele>764.0</ele><time>2026-05-01T08:39:03.999Z</time></trkpt><trkpt lat="44.33518555756429" lon="10.842337640162793"><ele>764.0</ele><time>2026-05-01T08:39:04.999Z</time></trkpt><trkpt lat="44.33511153549754" lon="10.842407337498774"><ele>764.0</ele><time>2026-05-01T08:39:05.999Z</time></trkpt><trkpt lat="44.33505789620078" lon="10.842464132156739"><ele>764.0</ele><time>2026-05-01T08:39:06.999Z</time></trkpt><trkpt lat="44.33498379141418" lon="10.842580107287663"><ele>764.0</ele><time>2026-05-01T08:39:08.999Z</time></trkpt><trkpt lat="44.33494909268331" lon="10.842690773195955"><ele>764.0</ele><time>2026-05-01T08:39:09.999Z</time></trkpt><trkpt lat="44.33497467284069" lon="10.842814588537527"><ele>763.5</ele><time>2026-05-01T08:39:11.999Z</time></trkpt><trkpt lat="44.335010370433864" lon="10.842921658223299"><ele>763.0</ele><time>2026-05-01T08:39:14Z</time></trkpt><trkpt lat="44.33504925069424" lon="10.842999813094618"><ele>762.5</ele><time>2026-05-01T08:39:15Z</time></trkpt><trkpt lat="44.33508394878521" lon="10.843080210496598"><ele>762.0</ele><time>2026-05-01T08:39:16Z</time></trkpt><trkpt lat="44.33514244627667" lon="10.843213788121895"><ele>761.5</ele><time>2026-05-01T08:39:18Z</time></trkpt><trkpt lat="44.33519758806533" lon="10.84326697461933"><ele>761.0</ele><time>2026-05-01T08:39:19Z</time></trkpt><trkpt lat="44.335250846120495" lon="10.843317046818886"><ele>761.0</ele><time>2026-05-01T08:39:20Z</time></trkpt><trkpt lat="44.33534397224857" lon="10.843397113523787"><ele>761.0</ele><time>2026-05-01T08:39:22Z</time></trkpt><trkpt lat="44.33541312042738" lon="10.843412370675034"><ele>761.0</ele><time>2026-05-01T08:39:23Z</time></trkpt><trkpt lat="44.33547586907602" lon="10.843398086154918"><ele>761.0</ele><time>2026-05-01T08:39:24Z</time></trkpt><trkpt lat="44.33553914592142" lon="10.843378489023788"><ele>761.0</ele><time>2026-05-01T08:39:25Z</time></trkpt><trkpt lat="44.335653247800444" lon="10.843336750996338"><ele>761.0</ele><time>2026-05-01T08:39:27Z</time></trkpt><trkpt lat="44.33571030794769" lon="10.84323612278218"><ele>762.4</ele><time>2026-05-01T08:39:28Z</time></trkpt><trkpt lat="44.33579629215197" lon="10.843150664169135"><ele>763.8</ele><time>2026-05-01T08:39:29Z</time></trkpt><trkpt lat="44.335852851078045" lon="10.843086031851604"><ele>765.1999999999999</ele><time>2026-05-01T08:39:30Z</time></trkpt><trkpt lat="44.3359436019542" lon="10.84299383419328"><ele>766.5999999999999</ele><time>2026-05-01T08:39:32Z</time></trkpt><trkpt lat="44.33605561032586" lon="10.842922067941359"><ele>768.0</ele><time>2026-05-01T08:39:34Z</time></trkpt><trkpt lat="44.336157587861784" lon="10.84292168328849"><ele>768.0</ele><time>2026-05-01T08:39:36Z</time></trkpt><trkpt lat="44.33622557211521" lon="10.842916674173743"><ele>768.0</ele><time>2026-05-01T08:39:38Z</time></trkpt><trkpt lat="44.33631840490213" lon="10.842926301666592"><ele>768.0</ele><time>2026-05-01T08:39:41Z</time></trkpt><trkpt lat="44.33637748112404" lon="10.842959244392944"><ele>768.0</ele><time>2026-05-01T08:39:42Z</time></trkpt><trkpt lat="44.33644185655328" lon="10.842968422289031"><ele>768.0</ele><time>2026-05-01T08:39:43Z</time></trkpt><trkpt lat="44.33651007272696" lon="10.842984438144821"><ele>768.0</ele><time>2026-05-01T08:39:44Z</time></trkpt><trkpt lat="44.33654950868797" lon="10.843107345143494"><ele>768.0</ele><time>2026-05-01T08:39:45Z</time></trkpt><trkpt lat="44.33663357680965" lon="10.843168054862977"><ele>768.0</ele><time>2026-05-01T08:39:46Z</time></trkpt><trkpt lat="44.33671460638707" lon="10.843258892275903"><ele>768.0</ele><time>2026-05-01T08:39:48Z</time></trkpt><trkpt lat="44.336775642232595" lon="10.843321947662133"><ele>768.0</ele><time>2026-05-01T08:39:52Z</time></trkpt><trkpt lat="44.33683971423755" lon="10.843364685199818"><ele>768.0</ele><time>2026-05-01T08:39:54Z</time></trkpt><trkpt lat="44.3369675749145" lon="10.843504291878622"><ele>768.0</ele><time>2026-05-01T08:39:56Z</time></trkpt><trkpt lat="44.33702295246015" lon="10.843581072489075"><ele>768.0</ele><time>2026-05-01T08:39:57Z</time></trkpt><trkpt lat="44.33710107970475" lon="10.843719591084017"><ele>768.0</ele><time>2026-05-01T08:39:59Z</time></trkpt><trkpt lat="44.3371491545118" lon="10.843792010631871"><ele>768.0</ele><time>2026-05-01T08:40:00Z</time></trkpt><trkpt lat="44.337215769570925" lon="10.843906057886473"><ele>768.0</ele><time>2026-05-01T08:40:02Z</time></trkpt><trkpt lat="44.33729529119763" lon="10.843999524896425"><ele>770.8</ele><time>2026-05-01T08:40:04Z</time></trkpt><trkpt lat="44.337363988644434" lon="10.844143382060798"><ele>773.5999999999999</ele><time>2026-05-01T08:40:06Z</time></trkpt><trkpt lat="44.33740617745947" lon="10.844222455483989"><ele>776.4000000000001</ele><time>2026-05-01T08:40:08Z</time></trkpt><trkpt lat="44.33743562833639" lon="10.84431228890531"><ele>779.2</ele><time>2026-05-01T08:40:10Z</time></trkpt><trkpt lat="44.33749282350571" lon="10.844463816579871"><ele>782.0</ele><time>2026-05-01T08:40:12Z</time></trkpt><trkpt lat="44.33757508671608" lon="10.844628976882488"><ele>782.0</ele><time>2026-05-01T08:40:14Z</time></trkpt><trkpt lat="44.33763273711054" lon="10.844726305637261"><ele>782.0</ele><time>2026-05-01T08:40:15Z</time></trkpt><trkpt lat="44.3376746385437" lon="10.844795288170262"><ele>782.0</ele><time>2026-05-01T08:40:16Z</time></trkpt><trkpt lat="44.33775545502523" lon="10.844896518488806"><ele>782.0</ele><time>2026-05-01T08:40:18Z</time></trkpt><trkpt lat="44.33782573066013" lon="10.844948606401339"><ele>782.0</ele><time>2026-05-01T08:40:20Z</time></trkpt><trkpt lat="44.3379353299398" lon="10.844970134868682"><ele>782.0000000000001</ele><time>2026-05-01T08:40:22Z</time></trkpt><trkpt lat="44.33803958442522" lon="10.845001105442575"><ele>782.0</ele><time>2026-05-01T08:40:23.999Z</time></trkpt><trkpt lat="44.338117809164316" lon="10.845012233109212"><ele>782.0</ele><time>2026-05-01T08:40:25.999Z</time></trkpt><trkpt lat="44.33818076140005" lon="10.84501589059168"><ele>782.0</ele><time>2026-05-01T08:40:29.999Z</time></trkpt><trkpt lat="44.33825004241437" lon="10.844999250557015"><ele>782.0000000000001</ele><time>2026-05-01T08:40:32.999Z</time></trkpt><trkpt lat="44.338315123737054" lon="10.845008946416169"><ele>782.0</ele><time>2026-05-01T08:40:33.999Z</time></trkpt><trkpt lat="44.338426759149456" lon="10.845032870794737"><ele>783.8333333333334</ele><time>2026-05-01T08:40:35.999Z</time></trkpt><trkpt lat="44.33850609433055" lon="10.845048281675576"><ele>785.6666666666667</ele><time>2026-05-01T08:40:37.999Z</time></trkpt><trkpt lat="44.338567243660414" lon="10.845094606605036"><ele>787.5</ele><time>2026-05-01T08:40:38.999Z</time></trkpt><trkpt lat="44.338646987839205" lon="10.84511484615705"><ele>789.3333333333333</ele><time>2026-05-01T08:40:40.999Z</time></trkpt><trkpt lat="44.33873705761959" lon="10.845111398237167"><ele>791.1666666666666</ele><time>2026-05-01T08:40:42.999Z</time></trkpt><trkpt lat="44.338821062529185" lon="10.845073099508497"><ele>793.0</ele><time>2026-05-01T08:40:44.999Z</time></trkpt><trkpt lat="44.33891940753657" lon="10.845046603923695"><ele>793.0</ele><time>2026-05-01T08:40:46.999Z</time></trkpt><trkpt lat="44.339017138139205" lon="10.84501481089284"><ele>793.0</ele><time>2026-05-01T08:40:48.999Z</time></trkpt><trkpt lat="44.339075952888784" lon="10.8449776856779"><ele>793.0</ele><time>2026-05-01T08:40:49.999Z</time></trkpt><trkpt lat="44.339247647343456" lon="10.844864585781622"><ele>793.0</ele><time>2026-05-01T08:40:51.999Z</time></trkpt><trkpt lat="44.339310958164724" lon="10.844847401562152"><ele>793.0</ele><time>2026-05-01T08:40:52.999Z</time></trkpt><trkpt lat="44.33940040866713" lon="10.844844125544476"><ele>793.0000000000001</ele><time>2026-05-01T08:40:53.999Z</time></trkpt><trkpt lat="44.339470551554065" lon="10.84485923444467"><ele>793.0</ele><time>2026-05-01T08:40:54.999Z</time></trkpt><trkpt lat="44.33954254341377" lon="10.844851918593006"><ele>793.0</ele><time>2026-05-01T08:40:55.999Z</time></trkpt><trkpt lat="44.339612078351266" lon="10.844843318619294"><ele>793.0</ele><time>2026-05-01T08:40:56.999Z</time></trkpt><trkpt lat="44.339690777664785" lon="10.844845372179051"><ele>793.0</ele><time>2026-05-01T08:40:57.999Z</time></trkpt><trkpt lat="44.339764088435935" lon="10.844848473057695"><ele>793.0000000000001</ele><time>2026-05-01T08:40:58.999Z</time></trkpt><trkpt lat="44.33984587778419" lon="10.844847426415908"><ele>793.0</ele><time>2026-05-01T08:40:59.999Z</time></trkpt><trkpt lat="44.339917837265006" lon="10.84484861272406"><ele>790.9999999999999</ele><time>2026-05-01T08:41:00.999Z</time></trkpt><trkpt lat="44.33999533651054" lon="10.844848325066243"><ele>789.0</ele><time>2026-05-01T08:41:01.999Z</time></trkpt><trkpt lat="44.3400764441477" lon="10.844846770123533"><ele>787.0</ele><time>2026-05-01T08:41:02.999Z</time></trkpt><trkpt lat="44.34014869225984" lon="10.844844846368323"><ele>785.0</ele><time>2026-05-01T08:41:03.999Z</time></trkpt><trkpt lat="44.3402176666379" lon="10.844847671249164"><ele>782.9999999999999</ele><time>2026-05-01T08:41:04.999Z</time></trkpt><trkpt lat="44.340299952265994" lon="10.84486670641535"><ele>781.0</ele><time>2026-05-01T08:41:05.999Z</time></trkpt><trkpt lat="44.340372934929505" lon="10.84488114769459"><ele>780.9999999999999</ele><time>2026-05-01T08:41:06.999Z</time></trkpt><trkpt lat="44.34044687682508" lon="10.844888403913243"><ele>781.0</ele><time>2026-05-01T08:41:07.999Z</time></trkpt><trkpt lat="44.34052030194208" lon="10.844890424145477"><ele>781.0</ele><time>2026-05-01T08:41:08.999Z</time></trkpt><trkpt lat="44.34063886821007" lon="10.84491041300513"><ele>781.0</ele><time>2026-05-01T08:41:10.999Z</time></trkpt><trkpt lat="44.34070389859491" lon="10.844932535964341"><ele>780.9999999999999</ele><time>2026-05-01T08:41:11.999Z</time></trkpt><trkpt lat="44.340766558711785" lon="10.844949750779664"><ele>781.0</ele><time>2026-05-01T08:41:12.999Z</time></trkpt><trkpt lat="44.34085076356876" lon="10.844973038293961"><ele>780.8333333333333</ele><time>2026-05-01T08:41:14.999Z</time></trkpt><trkpt lat="44.3409447574934" lon="10.84500987808882"><ele>780.6666666666666</ele><time>2026-05-01T08:41:16.999Z</time></trkpt><trkpt lat="44.34100243011662" lon="10.845059119751726"><ele>780.5</ele><time>2026-05-01T08:41:17.999Z</time></trkpt><trkpt lat="44.34106142466958" lon="10.845120739650152"><ele>780.3333333333333</ele><time>2026-05-01T08:41:19Z</time></trkpt><trkpt lat="44.34113164977811" lon="10.845212782625797"><ele>780.1666666666666</ele><time>2026-05-01T08:41:20Z</time></trkpt><trkpt lat="44.34120677630603" lon="10.84532778038345"><ele>780.0</ele><time>2026-05-01T08:41:21Z</time></trkpt><trkpt lat="44.34131627524883" lon="10.845482601877746"><ele>780.5</ele><time>2026-05-01T08:41:22Z</time></trkpt><trkpt lat="44.34142086633986" lon="10.845630692457824"><ele>781.0</ele><time>2026-05-01T08:41:23Z</time></trkpt><trkpt lat="44.34150970158006" lon="10.845747843501602"><ele>781.5</ele><time>2026-05-01T08:41:24Z</time></trkpt><trkpt lat="44.34156751751652" lon="10.845859015057195"><ele>782.0</ele><time>2026-05-01T08:41:25Z</time></trkpt><trkpt lat="44.34164269834125" lon="10.84593461929759"><ele>782.8</ele><time>2026-05-01T08:41:26Z</time></trkpt><trkpt lat="44.34168826800976" lon="10.84600921962478"><ele>783.6</ele><time>2026-05-01T08:41:27Z</time></trkpt><trkpt lat="44.341721360654155" lon="10.84621183772143"><ele>784.4</ele><time>2026-05-01T08:41:29Z</time></trkpt><trkpt lat="44.34173876477728" lon="10.84633595845291"><ele>785.1999999999999</ele><time>2026-05-01T08:41:30Z</time></trkpt><trkpt lat="44.3417375452985" lon="10.846484724843819"><ele>786.0</ele><time>2026-05-01T08:41:31Z</time></trkpt><trkpt lat="44.34173736460494" lon="10.846644974779787"><ele>786.8</ele><time>2026-05-01T08:41:32Z</time></trkpt><trkpt lat="44.3417375197979" lon="10.846802038159362"><ele>787.5999999999999</ele><time>2026-05-01T08:41:33Z</time></trkpt><trkpt lat="44.34170837053623" lon="10.846944781830873"><ele>788.4</ele><time>2026-05-01T08:41:34Z</time></trkpt><trkpt lat="44.34168236547682" lon="10.847076635908342"><ele>789.2</ele><time>2026-05-01T08:41:35Z</time></trkpt><trkpt lat="44.341646895075186" lon="10.847213626696389"><ele>790.0</ele><time>2026-05-01T08:41:36Z</time></trkpt><trkpt lat="44.34160597904428" lon="10.847355238887419"><ele>790.0</ele><time>2026-05-01T08:41:37Z</time></trkpt><trkpt lat="44.34158160283014" lon="10.847497136875068"><ele>790.0</ele><time>2026-05-01T08:41:38Z</time></trkpt><trkpt lat="44.341544289044194" lon="10.847606915494197"><ele>790.0</ele><time>2026-05-01T08:41:39Z</time></trkpt><trkpt lat="44.34151817639637" lon="10.84769185249738"><ele>790.0</ele><time>2026-05-01T08:41:40Z</time></trkpt><trkpt lat="44.34147585863464" lon="10.847771425199275"><ele>790.0</ele><time>2026-05-01T08:41:41Z</time></trkpt><trkpt lat="44.3415802298323" lon="10.847950814782074"><ele>791.0</ele><time>2026-05-01T08:41:44Z</time></trkpt><trkpt lat="44.34162507982211" lon="10.848049684695738"><ele>792.0</ele><time>2026-05-01T08:41:45Z</time></trkpt><trkpt lat="44.34167657035871" lon="10.84814098200289"><ele>793.0</ele><time>2026-05-01T08:41:46Z</time></trkpt><trkpt lat="44.341748837303506" lon="10.848234907695385"><ele>794.0</ele><time>2026-05-01T08:41:47Z</time></trkpt><trkpt lat="44.341807064574795" lon="10.848346676832705"><ele>795.0</ele><time>2026-05-01T08:41:48Z</time></trkpt><trkpt lat="44.34186968185118" lon="10.848451722322846"><ele>794.2</ele><time>2026-05-01T08:41:49Z</time></trkpt><trkpt lat="44.341941049975645" lon="10.848531831981116"><ele>793.4</ele><time>2026-05-01T08:41:50Z</time></trkpt><trkpt lat="44.342016604462884" lon="10.848594056737785"><ele>792.5999999999999</ele><time>2026-05-01T08:41:51Z</time></trkpt><trkpt lat="44.34208781554247" lon="10.84865404006232"><ele>791.8</ele><time>2026-05-01T08:41:52Z</time></trkpt><trkpt lat="44.34217257255699" lon="10.848725154362256"><ele>791.0</ele><time>2026-05-01T08:41:53Z</time></trkpt><trkpt lat="44.34225223998873" lon="10.848790225171669"><ele>793.5000000000001</ele><time>2026-05-01T08:41:54Z</time></trkpt><trkpt lat="44.34232042382012" lon="10.848843308880388"><ele>796.0</ele><time>2026-05-01T08:41:55Z</time></trkpt><trkpt lat="44.342403300304866" lon="10.848929910820635"><ele>798.5</ele><time>2026-05-01T08:41:56Z</time></trkpt><trkpt lat="44.34248892693116" lon="10.848999742270586"><ele>801.0</ele><time>2026-05-01T08:41:57Z</time></trkpt><trkpt lat="44.34258463386475" lon="10.848991193538335"><ele>803.5000000000001</ele><time>2026-05-01T08:41:58Z</time></trkpt><trkpt lat="44.342644721185465" lon="10.849029973753542"><ele>806.0</ele><time>2026-05-01T08:41:59Z</time></trkpt><trkpt lat="44.34282289180877" lon="10.849112565601597"><ele>806.0000000000001</ele><time>2026-05-01T08:42:01Z</time></trkpt><trkpt lat="44.34289539120922" lon="10.849113467105578"><ele>806.0</ele><time>2026-05-01T08:42:02Z</time></trkpt><trkpt lat="44.34298989625171" lon="10.849096858853358"><ele>806.0</ele><time>2026-05-01T08:42:03Z</time></trkpt><trkpt lat="44.34306019214786" lon="10.849105061395086"><ele>806.0</ele><time>2026-05-01T08:42:04Z</time></trkpt><trkpt lat="44.343132282569776" lon="10.849132093043389"><ele>806.0000000000001</ele><time>2026-05-01T08:42:05Z</time></trkpt><trkpt lat="44.34318866582928" lon="10.84919579234029"><ele>806.0</ele><time>2026-05-01T08:42:06Z</time></trkpt><trkpt lat="44.34326778861025" lon="10.849273756786534"><ele>809.3333333333334</ele><time>2026-05-01T08:42:07Z</time></trkpt><trkpt lat="44.34332863945978" lon="10.849353897242587"><ele>812.6666666666667</ele><time>2026-05-01T08:42:08Z</time></trkpt><trkpt lat="44.343403985842556" lon="10.849445386921216"><ele>816.0</ele><time>2026-05-01T08:42:09Z</time></trkpt><trkpt lat="44.34346626362861" lon="10.849528357154094"><ele>819.3333333333333</ele><time>2026-05-01T08:42:10Z</time></trkpt><trkpt lat="44.3435382735034" lon="10.849619623489676"><ele>822.6666666666666</ele><time>2026-05-01T08:42:11Z</time></trkpt><trkpt lat="44.343590012586745" lon="10.849676543038473"><ele>826.0</ele><time>2026-05-01T08:42:12Z</time></trkpt><trkpt lat="44.34374808414216" lon="10.849710585899047"><ele>826.0</ele><time>2026-05-01T08:42:14Z</time></trkpt><trkpt lat="44.343831889174076" lon="10.849732706054406"><ele>826.0</ele><time>2026-05-01T08:42:15Z</time></trkpt><trkpt lat="44.34390899097125" lon="10.84975535775311"><ele>826.0</ele><time>2026-05-01T08:42:16Z</time></trkpt><trkpt lat="44.34404798881206" lon="10.849751545451678"><ele>826.0</ele><time>2026-05-01T08:42:18Z</time></trkpt><trkpt lat="44.34413901835221" lon="10.8498012769967"><ele>826.0</ele><time>2026-05-01T08:42:19Z</time></trkpt><trkpt lat="44.34422588509762" lon="10.849893772600913"><ele>830.5</ele><time>2026-05-01T08:42:20Z</time></trkpt><trkpt lat="44.344336653567616" lon="10.850031158841555"><ele>835.0</ele><time>2026-05-01T08:42:21Z</time></trkpt><trkpt lat="44.34443573898205" lon="10.85014747539866"><ele>839.5</ele><time>2026-05-01T08:42:22Z</time></trkpt><trkpt lat="44.344516868667554" lon="10.850239259074252"><ele>844.0</ele><time>2026-05-01T08:42:23Z</time></trkpt><trkpt lat="44.344586028554126" lon="10.85030186690848"><ele>844.0</ele><time>2026-05-01T08:42:24Z</time></trkpt><trkpt lat="44.34465780751001" lon="10.850387336223855"><ele>844.0</ele><time>2026-05-01T08:42:25Z</time></trkpt><trkpt lat="44.344752674315416" lon="10.850489287129875"><ele>844.0</ele><time>2026-05-01T08:42:25.999Z</time></trkpt><trkpt lat="44.344809801358394" lon="10.850547765295188"><ele>844.0</ele><time>2026-05-01T08:42:26.999Z</time></trkpt><trkpt lat="44.34489074038445" lon="10.850643573645472"><ele>844.0</ele><time>2026-05-01T08:42:28.999Z</time></trkpt><trkpt lat="44.34497675587622" lon="10.850705972393095"><ele>849.2</ele><time>2026-05-01T08:42:30.999Z</time></trkpt><trkpt lat="44.34504941261757" lon="10.85076305596411"><ele>854.4000000000001</ele><time>2026-05-01T08:42:32.999Z</time></trkpt><trkpt lat="44.34512282841791" lon="10.850689489221743"><ele>859.6</ele><time>2026-05-01T08:42:35.999Z</time></trkpt><trkpt lat="44.34514373972284" lon="10.850603846703695"><ele>864.8</ele><time>2026-05-01T08:42:37.999Z</time></trkpt><trkpt lat="44.34512395528989" lon="10.85043932477122"><ele>870.0</ele><time>2026-05-01T08:42:39.999Z</time></trkpt><trkpt lat="44.34511966683219" lon="10.850291507289374"><ele>870.0</ele><time>2026-05-01T08:42:41.999Z</time></trkpt><trkpt lat="44.345169563091815" lon="10.850128325402974"><ele>870.0</ele><time>2026-05-01T08:42:43.999Z</time></trkpt><trkpt lat="44.34521029103111" lon="10.85000700688197"><ele>870.0</ele><time>2026-05-01T08:42:44.999Z</time></trkpt><trkpt lat="44.345238464756655" lon="10.84991351194251"><ele>870.0</ele><time>2026-05-01T08:42:45.999Z</time></trkpt><trkpt lat="44.345261895070045" lon="10.849817184614562"><ele>870.0</ele><time>2026-05-01T08:42:48.999Z</time></trkpt><trkpt lat="44.34530604797593" lon="10.84973125036925"><ele>870.0</ele><time>2026-05-01T08:42:50.999Z</time></trkpt><trkpt lat="44.34539407956232" lon="10.849728214195398"><ele>869.3333333333334</ele><time>2026-05-01T08:42:53.999Z</time></trkpt><trkpt lat="44.34550208636248" lon="10.849739389551676"><ele>868.6666666666667</ele><time>2026-05-01T08:42:56.999Z</time></trkpt><trkpt lat="44.3455697919166" lon="10.849715522070328"><ele>868.0</ele><time>2026-05-01T08:42:58.999Z</time></trkpt><trkpt lat="44.34563473810795" lon="10.84967653156762"><ele>867.3333333333334</ele><time>2026-05-01T08:43:15.999Z</time></trkpt><trkpt lat="44.34570069184414" lon="10.849639820703601"><ele>866.6666666666667</ele><time>2026-05-01T08:43:17.999Z</time></trkpt><trkpt lat="44.34577208185571" lon="10.849627755280583"><ele>866.0</ele><time>2026-05-01T08:43:19.999Z</time></trkpt><trkpt lat="44.34583740926386" lon="10.8495711159278"><ele>866.0000000000001</ele><time>2026-05-01T08:43:22.999Z</time></trkpt><trkpt lat="44.34590594990433" lon="10.84957026561543"><ele>866.0</ele><time>2026-05-01T08:43:25Z</time></trkpt><trkpt lat="44.346008869878524" lon="10.849583193470739"><ele>866.0</ele><time>2026-05-01T08:43:28Z</time></trkpt><trkpt lat="44.34607940387685" lon="10.849539509495484"><ele>866.0</ele><time>2026-05-01T08:43:31Z</time></trkpt><trkpt lat="44.34613323300362" lon="10.849472437830878"><ele>866.0000000000001</ele><time>2026-05-01T08:43:33Z</time></trkpt><trkpt lat="44.34616833134033" lon="10.849392382106677"><ele>866.0</ele><time>2026-05-01T08:43:35Z</time></trkpt><trkpt lat="44.34623759627451" lon="10.849316166587757"><ele>866.0000000000001</ele><time>2026-05-01T08:43:37Z</time></trkpt><trkpt lat="44.34631251228035" lon="10.84931229345252"><ele>866.0</ele><time>2026-05-01T08:43:39Z</time></trkpt><trkpt lat="44.34639136558809" lon="10.84928809582273"><ele>866.0</ele><time>2026-05-01T08:43:41Z</time></trkpt><trkpt lat="44.34648434458206" lon="10.849329017750893"><ele>866.0</ele><time>2026-05-01T08:43:43Z</time></trkpt><trkpt lat="44.34655067973521" lon="10.849328355322003"><ele>866.0000000000001</ele><time>2026-05-01T08:43:44Z</time></trkpt><trkpt lat="44.34667261245604" lon="10.849275006544419"><ele>866.0</ele><time>2026-05-01T08:43:46Z</time></trkpt><trkpt lat="44.34677046926429" lon="10.849267022269947"><ele>862.8</ele><time>2026-05-01T08:43:48Z</time></trkpt><trkpt lat="44.34686395819723" lon="10.849287834826567"><ele>859.5999999999999</ele><time>2026-05-01T08:43:50Z</time></trkpt><trkpt lat="44.34698180145756" lon="10.849312813588655"><ele>856.4</ele><time>2026-05-01T08:43:52Z</time></trkpt><trkpt lat="44.347062348122186" lon="10.849286895085092"><ele>853.2</ele><time>2026-05-01T08:43:54Z</time></trkpt><trkpt lat="44.34714669666647" lon="10.849340504244596"><ele>850.0</ele><time>2026-05-01T08:43:56Z</time></trkpt><trkpt lat="44.347220025274396" lon="10.84940280812595"><ele>845.3333333333333</ele><time>2026-05-01T08:43:59Z</time></trkpt><trkpt lat="44.3472565707486" lon="10.849479512283052"><ele>840.6666666666666</ele><time>2026-05-01T08:44:01Z</time></trkpt><trkpt lat="44.34731653054366" lon="10.849555637915326"><ele>836.0</ele><time>2026-05-01T08:44:04Z</time></trkpt><trkpt lat="44.347366356671984" lon="10.849619043958763"><ele>831.3333333333333</ele><time>2026-05-01T08:44:14Z</time></trkpt><trkpt lat="44.34743578602565" lon="10.849696460776979"><ele>826.6666666666666</ele><time>2026-05-01T08:44:21Z</time></trkpt><trkpt lat="44.34750484986801" lon="10.849766679642006"><ele>822.0</ele><time>2026-05-01T08:44:23Z</time></trkpt><trkpt lat="44.347558379514126" lon="10.849819150536986"><ele>822.0</ele><time>2026-05-01T08:44:25Z</time></trkpt><trkpt lat="44.34765427085397" lon="10.850093753203828"><ele>822.0</ele><time>2026-05-01T08:44:27Z</time></trkpt><trkpt lat="44.34772040888894" lon="10.850077004064742"><ele>822.0</ele><time>2026-05-01T08:44:28Z</time></trkpt><trkpt lat="44.3477876573712" lon="10.850048350388995"><ele>822.0</ele><time>2026-05-01T08:44:31Z</time></trkpt><trkpt lat="44.34789300445754" lon="10.849922156376456"><ele>822.0</ele><time>2026-05-01T08:44:33Z</time></trkpt><trkpt lat="44.34796153523249" lon="10.849835687541825"><ele>822.0</ele><time>2026-05-01T08:44:36Z</time></trkpt><trkpt lat="44.34801363128059" lon="10.84973772477091"><ele>822.0</ele><time>2026-05-01T08:44:39Z</time></trkpt><trkpt lat="44.34806083144404" lon="10.849644990568434"><ele>822.0</ele><time>2026-05-01T08:44:43Z</time></trkpt><trkpt lat="44.3480977256893" lon="10.849563724401994"><ele>822.0</ele><time>2026-05-01T08:44:44Z</time></trkpt><trkpt lat="44.348142209374636" lon="10.849450537857532"><ele>822.0</ele><time>2026-05-01T08:44:45Z</time></trkpt><trkpt lat="44.348184730676685" lon="10.84932255526036"><ele>821.8</ele><time>2026-05-01T08:44:45.999Z</time></trkpt><trkpt lat="44.34822328994074" lon="10.849217212173421"><ele>821.6</ele><time>2026-05-01T08:44:46.999Z</time></trkpt><trkpt lat="44.348256435836255" lon="10.849096523608015"><ele>821.4</ele><time>2026-05-01T08:44:47.999Z</time></trkpt><trkpt lat="44.348341405567204" lon="10.849031419254267"><ele>821.1999999999999</ele><time>2026-05-01T08:44:48.999Z</time></trkpt><trkpt lat="44.34843363699616" lon="10.84893953379873"><ele>821.0</ele><time>2026-05-01T08:44:49.999Z</time></trkpt><trkpt lat="44.34851070090282" lon="10.848844363761224"><ele>821.0000000000001</ele><time>2026-05-01T08:44:50.999Z</time></trkpt><trkpt lat="44.348580772227365" lon="10.848756329496013"><ele>821.0</ele><time>2026-05-01T08:44:51.999Z</time></trkpt><trkpt lat="44.34865078824458" lon="10.84867363675512"><ele>821.0</ele><time>2026-05-01T08:44:52.999Z</time></trkpt><trkpt lat="44.34869839355778" lon="10.848589277838814"><ele>821.0</ele><time>2026-05-01T08:44:53.999Z</time></trkpt><trkpt lat="44.348737649562274" lon="10.848481773228514"><ele>821.0000000000001</ele><time>2026-05-01T08:44:54.999Z</time></trkpt><trkpt lat="44.34880422967353" lon="10.848404164765034"><ele>821.0</ele><time>2026-05-01T08:44:55.999Z</time></trkpt><trkpt lat="44.348860708047944" lon="10.848329484036013"><ele>817.5000000000001</ele><time>2026-05-01T08:44:56.999Z</time></trkpt><trkpt lat="44.34891591215686" lon="10.848266793803303"><ele>814.0</ele><time>2026-05-01T08:44:57.999Z</time></trkpt><trkpt lat="44.348972029228996" lon="10.848213701542237"><ele>810.5</ele><time>2026-05-01T08:44:58.999Z</time></trkpt><trkpt lat="44.34905848145322" lon="10.848172442350515"><ele>807.0</ele><time>2026-05-01T08:44:59.999Z</time></trkpt><trkpt lat="44.34913419522763" lon="10.848206233723749"><ele>803.5000000000001</ele><time>2026-05-01T08:45:00.999Z</time></trkpt><trkpt lat="44.34924408193859" lon="10.848266042899231"><ele>800.0</ele><time>2026-05-01T08:45:01.999Z</time></trkpt><trkpt lat="44.34936591929275" lon="10.848314642698744"><ele>800.0</ele><time>2026-05-01T08:45:02.999Z</time></trkpt><trkpt lat="44.349491813557215" lon="10.84834563881416"><ele>800.0</ele><time>2026-05-01T08:45:03.999Z</time></trkpt><trkpt lat="44.34958900816683" lon="10.848417628025846"><ele>800.0</ele><time>2026-05-01T08:45:04.999Z</time></trkpt><trkpt lat="44.34967189770028" lon="10.848474146920342"><ele>800.0</ele><time>2026-05-01T08:45:05.999Z</time></trkpt><trkpt lat="44.34976412772013" lon="10.848516996834244"><ele>800.0</ele><time>2026-05-01T08:45:06.999Z</time></trkpt><trkpt lat="44.34983225458865" lon="10.848567479876813"><ele>796.2</ele><time>2026-05-01T08:45:07.999Z</time></trkpt><trkpt lat="44.349899593734875" lon="10.848598522316713"><ele>792.4</ele><time>2026-05-01T08:45:08.999Z</time></trkpt><trkpt lat="44.34997890519212" lon="10.84859028203325"><ele>788.5999999999999</ele><time>2026-05-01T08:45:09.999Z</time></trkpt><trkpt lat="44.35007967830248" lon="10.848543224219402"><ele>784.8</ele><time>2026-05-01T08:45:10.999Z</time></trkpt><trkpt lat="44.35021014817747" lon="10.848502046889909"><ele>781.0</ele><time>2026-05-01T08:45:11.999Z</time></trkpt><trkpt lat="44.35033930373531" lon="10.848478163848535"><ele>781.0</ele><time>2026-05-01T08:45:12.999Z</time></trkpt><trkpt lat="44.35044873615176" lon="10.84846289402056"><ele>781.0</ele><time>2026-05-01T08:45:13.999Z</time></trkpt><trkpt lat="44.35054708040622" lon="10.848443489982447"><ele>781.0</ele><time>2026-05-01T08:45:14.999Z</time></trkpt><trkpt lat="44.3506261037279" lon="10.848437845141541"><ele>781.0</ele><time>2026-05-01T08:45:15.999Z</time></trkpt><trkpt lat="44.350712241343984" lon="10.848436944320435"><ele>781.0</ele><time>2026-05-01T08:45:16.999Z</time></trkpt><trkpt lat="44.35079407632027" lon="10.848435706991484"><ele>780.5999999999999</ele><time>2026-05-01T08:45:17.999Z</time></trkpt><trkpt lat="44.35086096479188" lon="10.848441527780757"><ele>780.2</ele><time>2026-05-01T08:45:18.999Z</time></trkpt><trkpt lat="44.35096594686202" lon="10.848441198494392"><ele>779.8</ele><time>2026-05-01T08:45:20.999Z</time></trkpt><trkpt lat="44.351019004632484" lon="10.848572482487722"><ele>779.4000000000001</ele><time>2026-05-01T08:45:23.999Z</time></trkpt><trkpt lat="44.3510675332614" lon="10.848664604456076"><ele>779.0</ele><time>2026-05-01T08:45:24.999Z</time></trkpt><trkpt lat="44.35110426452279" lon="10.848786262887739"><ele>779.0</ele><time>2026-05-01T08:45:25.999Z</time></trkpt><trkpt lat="44.35116453917951" lon="10.848854227580377"><ele>779.0</ele><time>2026-05-01T08:45:26.999Z</time></trkpt><trkpt lat="44.351261049020806" lon="10.848894189150148"><ele>779.0</ele><time>2026-05-01T08:45:27.999Z</time></trkpt><trkpt lat="44.351365064553605" lon="10.848915080613258"><ele>779.0</ele><time>2026-05-01T08:45:28.999Z</time></trkpt><trkpt lat="44.351444003091956" lon="10.848959566696752"><ele>779.0</ele><time>2026-05-01T08:45:30.001Z</time></trkpt><trkpt lat="44.351528410392184" lon="10.848985478672352"><ele>779.1666666666667</ele><time>2026-05-01T08:45:31.001Z</time></trkpt><trkpt lat="44.35160284858431" lon="10.84902374843227"><ele>779.3333333333334</ele><time>2026-05-01T08:45:32.001Z</time></trkpt><trkpt lat="44.351674092439744" lon="10.849070566483856"><ele>779.5</ele><time>2026-05-01T08:45:33.001Z</time></trkpt><trkpt lat="44.35171694009933" lon="10.849136093735183"><ele>779.6666666666667</ele><time>2026-05-01T08:45:34.001Z</time></trkpt><trkpt lat="44.35175654861818" lon="10.849223061891912"><ele>779.8333333333334</ele><time>2026-05-01T08:45:36Z</time></trkpt><trkpt lat="44.35171590174424" lon="10.849365529087622"><ele>780.0</ele><time>2026-05-01T08:45:37Z</time></trkpt><trkpt lat="44.35171565154721" lon="10.849504960239978"><ele>780.0</ele><time>2026-05-01T08:45:38Z</time></trkpt><trkpt lat="44.35174752333805" lon="10.849649086726794"><ele>780.0</ele><time>2026-05-01T08:45:39Z</time></trkpt><trkpt lat="44.351777731070676" lon="10.849842050209986"><ele>780.0</ele><time>2026-05-01T08:45:40Z</time></trkpt><trkpt lat="44.3518312450844" lon="10.85003255125511"><ele>780.0</ele><time>2026-05-01T08:45:41Z</time></trkpt><trkpt lat="44.3518828493409" lon="10.85026366996984"><ele>780.6666666666667</ele><time>2026-05-01T08:45:42Z</time></trkpt><trkpt lat="44.351927247420235" lon="10.850517876885784"><ele>781.3333333333334</ele><time>2026-05-01T08:45:43Z</time></trkpt><trkpt lat="44.351930753254855" lon="10.850767034248756"><ele>782.0</ele><time>2026-05-01T08:45:44Z</time></trkpt><trkpt lat="44.35190199289842" lon="10.850961602799854"><ele>783.6666666666667</ele><time>2026-05-01T08:45:45Z</time></trkpt><trkpt lat="44.35185031374935" lon="10.851138325293837"><ele>785.3333333333333</ele><time>2026-05-01T08:45:46Z</time></trkpt><trkpt lat="44.35179455797756" lon="10.851360071471495"><ele>787.0</ele><time>2026-05-01T08:45:47Z</time></trkpt><trkpt lat="44.351716650022446" lon="10.851605586316744"><ele>789.0</ele><time>2026-05-01T08:45:48Z</time></trkpt><trkpt lat="44.35164900576025" lon="10.851871098857409"><ele>791.0</ele><time>2026-05-01T08:45:49Z</time></trkpt><trkpt lat="44.351551513838146" lon="10.852148575294025"><ele>793.0</ele><time>2026-05-01T08:45:50Z</time></trkpt><trkpt lat="44.35146612121952" lon="10.852363549659213"><ele>792.5</ele><time>2026-05-01T08:45:51Z</time></trkpt><trkpt lat="44.35137002975796" lon="10.852551443858646"><ele>792.0</ele><time>2026-05-01T08:45:52Z</time></trkpt><trkpt lat="44.35129253155553" lon="10.852699718145969"><ele>791.5</ele><time>2026-05-01T08:45:53Z</time></trkpt><trkpt lat="44.35121791062219" lon="10.852868160279261"><ele>791.0</ele><time>2026-05-01T08:45:54Z</time></trkpt><trkpt lat="44.35113644634922" lon="10.85302321920526"><ele>791.0</ele><time>2026-05-01T08:45:55Z</time></trkpt><trkpt lat="44.35105215062929" lon="10.853170298832929"><ele>791.0</ele><time>2026-05-01T08:45:56Z</time></trkpt><trkpt lat="44.350988619716595" lon="10.8532995264613"><ele>791.0</ele><time>2026-05-01T08:45:57Z</time></trkpt><trkpt lat="44.350927007143795" lon="10.853413402592365"><ele>791.0</ele><time>2026-05-01T08:45:58Z</time></trkpt><trkpt lat="44.35086943793905" lon="10.8534854975471"><ele>791.0</ele><time>2026-05-01T08:45:59Z</time></trkpt><trkpt lat="44.350821072608355" lon="10.853614249186723"><ele>791.0</ele><time>2026-05-01T08:46:01Z</time></trkpt><trkpt lat="44.35077015294229" lon="10.853687242647997"><ele>791.0</ele><time>2026-05-01T08:46:04Z</time></trkpt><trkpt lat="44.35078894587353" lon="10.853586464951858"><ele>791.0</ele><time>2026-05-01T08:46:07Z</time></trkpt><trkpt lat="44.35090612655806" lon="10.853477767379003"><ele>791.0</ele><time>2026-05-01T08:46:09Z</time></trkpt><trkpt lat="44.35099034307808" lon="10.853385019744453"><ele>791.0</ele><time>2026-05-01T08:46:10Z</time></trkpt><trkpt lat="44.35106179002073" lon="10.853241235127683"><ele>791.0</ele><time>2026-05-01T08:46:11Z</time></trkpt><trkpt lat="44.35112994083304" lon="10.85307942588055"><ele>791.0</ele><time>2026-05-01T08:46:12Z</time></trkpt><trkpt lat="44.351220846716004" lon="10.85290918615191"><ele>791.0</ele><time>2026-05-01T08:46:13Z</time></trkpt><trkpt lat="44.35131813974123" lon="10.85272965732298"><ele>791.0</ele><time>2026-05-01T08:46:14Z</time></trkpt><trkpt lat="44.35142127006383" lon="10.852543640878402"><ele>791.5</ele><time>2026-05-01T08:46:15Z</time></trkpt><trkpt lat="44.35151484174276" lon="10.852342874132464"><ele>792.0</ele><time>2026-05-01T08:46:16Z</time></trkpt><trkpt lat="44.35158787959484" lon="10.852159380021858"><ele>792.5</ele><time>2026-05-01T08:46:17Z</time></trkpt><trkpt lat="44.351629212367094" lon="10.852016392779758"><ele>793.0</ele><time>2026-05-01T08:46:18Z</time></trkpt><trkpt lat="44.351686828698725" lon="10.851842370838288"><ele>791.5</ele><time>2026-05-01T08:46:19Z</time></trkpt><trkpt lat="44.351733865025395" lon="10.851673058156596"><ele>790.0</ele><time>2026-05-01T08:46:20Z</time></trkpt><trkpt lat="44.351782665441235" lon="10.851489740040495"><ele>788.5</ele><time>2026-05-01T08:46:21Z</time></trkpt><trkpt lat="44.35183517770096" lon="10.851314849948688"><ele>787.0</ele><time>2026-05-01T08:46:22Z</time></trkpt><trkpt lat="44.35188306751938" lon="10.85116309794062"><ele>787.0</ele><time>2026-05-01T08:46:23Z</time></trkpt><trkpt lat="44.351924009303154" lon="10.851015933399701"><ele>787.0</ele><time>2026-05-01T08:46:24Z</time></trkpt><trkpt lat="44.351949461215206" lon="10.850878148551736"><ele>787.0</ele><time>2026-05-01T08:46:25Z</time></trkpt><trkpt lat="44.35196227833825" lon="10.850736056152861"><ele>787.0</ele><time>2026-05-01T08:46:26Z</time></trkpt><trkpt lat="44.35196580431665" lon="10.850624661256983"><ele>787.0</ele><time>2026-05-01T08:46:27Z</time></trkpt><trkpt lat="44.35197335442607" lon="10.85053612850915"><ele>785.75</ele><time>2026-05-01T08:46:28Z</time></trkpt><trkpt lat="44.35210248418292" lon="10.85049145858208"><ele>784.5</ele><time>2026-05-01T08:46:31Z</time></trkpt><trkpt lat="44.35219195914865" lon="10.85046229908891"><ele>783.25</ele><time>2026-05-01T08:46:32Z</time></trkpt><trkpt lat="44.352292709672206" lon="10.850433772117567"><ele>782.0</ele><time>2026-05-01T08:46:33Z</time></trkpt><trkpt lat="44.352423823444234" lon="10.85038546160316"><ele>784.75</ele><time>2026-05-01T08:46:34Z</time></trkpt><trkpt lat="44.352583562828165" lon="10.850349298347641"><ele>787.5</ele><time>2026-05-01T08:46:35Z</time></trkpt><trkpt lat="44.352715347110724" lon="10.850319706941995"><ele>790.25</ele><time>2026-05-01T08:46:36Z</time></trkpt><trkpt lat="44.35283710862002" lon="10.850292577240369"><ele>793.0</ele><time>2026-05-01T08:46:37Z</time></trkpt><trkpt lat="44.35295523386789" lon="10.850268566284637"><ele>797.0</ele><time>2026-05-01T08:46:38Z</time></trkpt><trkpt lat="44.35307236278946" lon="10.85024903988851"><ele>801.0</ele><time>2026-05-01T08:46:39Z</time></trkpt><trkpt lat="44.353183245973256" lon="10.850225359635466"><ele>805.0</ele><time>2026-05-01T08:46:39.999Z</time></trkpt><trkpt lat="44.35329781087511" lon="10.850228452600017"><ele>809.0</ele><time>2026-05-01T08:46:40.999Z</time></trkpt><trkpt lat="44.35340625908529" lon="10.850226000219312"><ele>809.0</ele><time>2026-05-01T08:46:41.999Z</time></trkpt><trkpt lat="44.35351555823367" lon="10.850236890066043"><ele>809.0</ele><time>2026-05-01T08:46:42.999Z</time></trkpt><trkpt lat="44.35361810725749" lon="10.850260182074948"><ele>809.0</ele><time>2026-05-01T08:46:43.999Z</time></trkpt><trkpt lat="44.35370044873025" lon="10.850339947886221"><ele>809.0</ele><time>2026-05-01T08:46:44.999Z</time></trkpt><trkpt lat="44.353783874792654" lon="10.850420660809228"><ele>809.0</ele><time>2026-05-01T08:46:45.999Z</time></trkpt><trkpt lat="44.353863334594955" lon="10.850508267835442"><ele>811.8000000000001</ele><time>2026-05-01T08:46:46.999Z</time></trkpt><trkpt lat="44.35394766122684" lon="10.850604863472181"><ele>814.6</ele><time>2026-05-01T08:46:47.999Z</time></trkpt><trkpt lat="44.35401029734044" lon="10.850679579950457"><ele>817.4</ele><time>2026-05-01T08:46:48.999Z</time></trkpt><trkpt lat="44.35408190820952" lon="10.850739385958772"><ele>820.2</ele><time>2026-05-01T08:46:49.999Z</time></trkpt><trkpt lat="44.354148826984265" lon="10.850762364910432"><ele>823.0</ele><time>2026-05-01T08:46:50.999Z</time></trkpt><trkpt lat="44.35429456091651" lon="10.850686440840436"><ele>822.9999999999999</ele><time>2026-05-01T08:46:52.999Z</time></trkpt><trkpt lat="44.354376269575006" lon="10.850612824878171"><ele>823.0</ele><time>2026-05-01T08:46:53.999Z</time></trkpt><trkpt lat="44.35445738814443" lon="10.850530508977338"><ele>823.0</ele><time>2026-05-01T08:46:54.999Z</time></trkpt><trkpt lat="44.354511958757946" lon="10.85047597632085"><ele>823.0</ele><time>2026-05-01T08:46:55.999Z</time></trkpt><trkpt lat="44.35458063232064" lon="10.850422147822634"><ele>822.9999999999999</ele><time>2026-05-01T08:46:56.999Z</time></trkpt><trkpt lat="44.35464653473034" lon="10.850382844003375"><ele>823.0</ele><time>2026-05-01T08:46:57.999Z</time></trkpt><trkpt lat="44.35477370373527" lon="10.850332109766745"><ele>825.3333333333333</ele><time>2026-05-01T08:46:59.999Z</time></trkpt><trkpt lat="44.35484359429995" lon="10.85030477701456"><ele>827.6666666666666</ele><time>2026-05-01T08:47:00.999Z</time></trkpt><trkpt lat="44.354908404556745" lon="10.850277383359366"><ele>830.0</ele><time>2026-05-01T08:47:01.999Z</time></trkpt><trkpt lat="44.35503092109855" lon="10.85029191912185"><ele>832.3333333333333</ele><time>2026-05-01T08:47:03.999Z</time></trkpt><trkpt lat="44.355111401920254" lon="10.8503145165137"><ele>834.6666666666666</ele><time>2026-05-01T08:47:04.999Z</time></trkpt><trkpt lat="44.355185557574586" lon="10.850336842942669"><ele>837.0</ele><time>2026-05-01T08:47:05.999Z</time></trkpt><trkpt lat="44.355256288522355" lon="10.850358138270316"><ele>837.0</ele><time>2026-05-01T08:47:06.999Z</time></trkpt><trkpt lat="44.355341994917644" lon="10.85037527383833"><ele>837.0</ele><time>2026-05-01T08:47:07.999Z</time></trkpt><trkpt lat="44.35541957158293" lon="10.850377820106901"><ele>837.0</ele><time>2026-05-01T08:47:08.999Z</time></trkpt><trkpt lat="44.35550851610837" lon="10.850408493275033"><ele>837.0</ele><time>2026-05-01T08:47:09.999Z</time></trkpt><trkpt lat="44.355619505395396" lon="10.850401132766846"><ele>837.0</ele><time>2026-05-01T08:47:10.999Z</time></trkpt><trkpt lat="44.355726800112045" lon="10.850434112612179"><ele>838.8333333333334</ele><time>2026-05-01T08:47:11.999Z</time></trkpt><trkpt lat="44.355819186148146" lon="10.850427773615394"><ele>840.6666666666667</ele><time>2026-05-01T08:47:12.999Z</time></trkpt><trkpt lat="44.35591261807197" lon="10.850437527169907"><ele>842.5</ele><time>2026-05-01T08:47:13.999Z</time></trkpt><trkpt lat="44.35600047893343" lon="10.850418231554954"><ele>844.3333333333334</ele><time>2026-05-01T08:47:14.999Z</time></trkpt><trkpt lat="44.35606642396856" lon="10.850435943024479"><ele>846.1666666666667</ele><time>2026-05-01T08:47:15.999Z</time></trkpt><trkpt lat="44.356142613736885" lon="10.850457178634592"><ele>848.0</ele><time>2026-05-01T08:47:16.999Z</time></trkpt><trkpt lat="44.35622495462792" lon="10.850487553453199"><ele>848.0000000000001</ele><time>2026-05-01T08:47:17.999Z</time></trkpt><trkpt lat="44.356307504012875" lon="10.850536034947527"><ele>848.0</ele><time>2026-05-01T08:47:18.999Z</time></trkpt><trkpt lat="44.35639682407242" lon="10.850597877936403"><ele>848.0</ele><time>2026-05-01T08:47:19.999Z</time></trkpt><trkpt lat="44.35645319476194" lon="10.850666365808191"><ele>848.0</ele><time>2026-05-01T08:47:20.999Z</time></trkpt><trkpt lat="44.35651660021811" lon="10.850701977479405"><ele>848.0000000000001</ele><time>2026-05-01T08:47:21.999Z</time></trkpt><trkpt lat="44.35657918976789" lon="10.85075229498027"><ele>848.0</ele><time>2026-05-01T08:47:25.999Z</time></trkpt><trkpt lat="44.356682651571205" lon="10.850842417465518"><ele>847.8</ele><time>2026-05-01T08:47:27.999Z</time></trkpt><trkpt lat="44.356780678491" lon="10.850928479714215"><ele>847.5999999999999</ele><time>2026-05-01T08:47:29.999Z</time></trkpt><trkpt lat="44.35687637151691" lon="10.851020963967386"><ele>847.4000000000001</ele><time>2026-05-01T08:47:31.999Z</time></trkpt><trkpt lat="44.35693616418821" lon="10.851081867163687"><ele>847.2</ele><time>2026-05-01T08:47:32.999Z</time></trkpt><trkpt lat="44.35699658608458" lon="10.851161751478854"><ele>847.0</ele><time>2026-05-01T08:47:33.999Z</time></trkpt><trkpt lat="44.35707496364527" lon="10.851282529567856"><ele>849.6</ele><time>2026-05-01T08:47:36Z</time></trkpt><trkpt lat="44.35714908416511" lon="10.851399183706071"><ele>852.2</ele><time>2026-05-01T08:47:38Z</time></trkpt><trkpt lat="44.35720066367523" lon="10.851481896246959"><ele>854.8</ele><time>2026-05-01T08:47:41Z</time></trkpt><trkpt lat="44.357103468535506" lon="10.851564564693629"><ele>857.4</ele><time>2026-05-01T08:47:45Z</time></trkpt><trkpt lat="44.357034601365804" lon="10.851562634386392"><ele>860.0</ele><time>2026-05-01T08:47:47Z</time></trkpt><trkpt lat="44.35691211854672" lon="10.85157453260953"><ele>860.0000000000001</ele><time>2026-05-01T08:47:49Z</time></trkpt><trkpt lat="44.35682894563695" lon="10.85155532655668"><ele>860.0</ele><time>2026-05-01T08:47:50Z</time></trkpt><trkpt lat="44.35673730811164" lon="10.851582674012516"><ele>860.0</ele><time>2026-05-01T08:47:51Z</time></trkpt><trkpt lat="44.356686215522245" lon="10.851646711120297"><ele>860.0</ele><time>2026-05-01T08:47:52Z</time></trkpt><trkpt lat="44.35662971248444" lon="10.851762908866542"><ele>860.0000000000001</ele><time>2026-05-01T08:47:54Z</time></trkpt><trkpt lat="44.35655961012997" lon="10.851787279828583"><ele>860.0</ele><time>2026-05-01T08:47:57Z</time></trkpt><trkpt lat="44.35646731157393" lon="10.851781380486514"><ele>860.0000000000001</ele><time>2026-05-01T08:47:59Z</time></trkpt><trkpt lat="44.35639289524973" lon="10.851791465714268"><ele>860.0</ele><time>2026-05-01T08:48:01Z</time></trkpt><trkpt lat="44.3563286318243" lon="10.851793869409006"><ele>860.0</ele><time>2026-05-01T08:48:03Z</time></trkpt><trkpt lat="44.356395399929696" lon="10.851790212860209"><ele>860.0</ele><time>2026-05-01T08:48:21Z</time></trkpt><trkpt lat="44.35647435071925" lon="10.851774673179692"><ele>860.0000000000001</ele><time>2026-05-01T08:48:23Z</time></trkpt><trkpt lat="44.356549240454186" lon="10.851766571264397"><ele>860.0</ele><time>2026-05-01T08:48:24Z</time></trkpt><trkpt lat="44.356641679252725" lon="10.851767921230504"><ele>860.0</ele><time>2026-05-01T08:48:26Z</time></trkpt><trkpt lat="44.35671175542971" lon="10.851773863730408"><ele>860.0</ele><time>2026-05-01T08:48:28Z</time></trkpt><trkpt lat="44.35678029167999" lon="10.851748091802488"><ele>860.0</ele><time>2026-05-01T08:48:31Z</time></trkpt><trkpt lat="44.356848125223486" lon="10.851777342069292"><ele>860.0</ele><time>2026-05-01T08:48:35Z</time></trkpt><trkpt lat="44.35688262314992" lon="10.851876338690316"><ele>860.0</ele><time>2026-05-01T08:48:37Z</time></trkpt><trkpt lat="44.35692829018487" lon="10.851963907947313"><ele>860.0</ele><time>2026-05-01T08:48:39.999Z</time></trkpt><trkpt lat="44.35695495372464" lon="10.85205867403589"><ele>860.0</ele><time>2026-05-01T08:49:07.999Z</time></trkpt><trkpt lat="44.35701764827769" lon="10.8520713090156"><ele>860.0</ele><time>2026-05-01T08:49:12.999Z</time></trkpt><trkpt lat="44.35706273550942" lon="10.851996461975824"><ele>860.0</ele><time>2026-05-01T08:49:43Z</time></trkpt><trkpt lat="44.357054033427296" lon="10.851905473776544"><ele>860.0</ele><time>2026-05-01T08:49:45Z</time></trkpt><trkpt lat="44.357044373968" lon="10.851812812456513"><ele>860.0</ele><time>2026-05-01T08:49:46Z</time></trkpt><trkpt lat="44.357013428618075" lon="10.851726816254178"><ele>860.0</ele><time>2026-05-01T08:49:48Z</time></trkpt><trkpt lat="44.35702711111824" lon="10.85163692891066"><ele>860.0</ele><time>2026-05-01T08:49:50Z</time></trkpt><trkpt lat="44.35708265555058" lon="10.851545352274279"><ele>860.0</ele><time>2026-05-01T08:49:55Z</time></trkpt><trkpt lat="44.3571667324685" lon="10.85150124572858"><ele>858.3333333333334</ele><time>2026-05-01T08:49:58Z</time></trkpt><trkpt lat="44.35722743993282" lon="10.851470594104034"><ele>856.6666666666667</ele><time>2026-05-01T08:50:00Z</time></trkpt><trkpt lat="44.35731551172753" lon="10.851510968790414"><ele>855.0</ele><time>2026-05-01T08:50:03Z</time></trkpt><trkpt lat="44.35735422366446" lon="10.85158685287948"><ele>853.3333333333333</ele><time>2026-05-01T08:50:05Z</time></trkpt><trkpt lat="44.357395834783986" lon="10.851677794473433"><ele>851.6666666666666</ele><time>2026-05-01T08:55:38.999Z</time></trkpt><trkpt lat="44.357493716523834" lon="10.851761257197332"><ele>850.0</ele><time>2026-05-01T08:55:40.999Z</time></trkpt><trkpt lat="44.35757619978553" lon="10.85176483348264"><ele>849.9999999999999</ele><time>2026-05-01T08:55:43.998Z</time></trkpt><trkpt lat="44.357640224192636" lon="10.85171745988572"><ele>850.0</ele><time>2026-05-01T08:55:46.998Z</time></trkpt><trkpt lat="44.35767345193795" lon="10.851597053068424"><ele>850.0</ele><time>2026-05-01T08:55:49.998Z</time></trkpt><trkpt lat="44.357717940996835" lon="10.851518594470845"><ele>850.0</ele><time>2026-05-01T08:55:53.998Z</time></trkpt><trkpt lat="44.35777757761422" lon="10.851466526018484"><ele>849.9999999999999</ele><time>2026-05-01T08:55:58.998Z</time></trkpt><trkpt lat="44.357882828060106" lon="10.851435491482741"><ele>850.0</ele><time>2026-05-01T08:56:01Z</time></trkpt><trkpt lat="44.35800135776512" lon="10.851442829028164"><ele>848.4</ele><time>2026-05-01T08:56:03Z</time></trkpt><trkpt lat="44.358112507362726" lon="10.851432210638858"><ele>846.8</ele><time>2026-05-01T08:56:05Z</time></trkpt><trkpt lat="44.35818393056813" lon="10.851447140395008"><ele>845.2</ele><time>2026-05-01T08:56:06Z</time></trkpt><trkpt lat="44.358259836763246" lon="10.851443672310277"><ele>843.6</ele><time>2026-05-01T08:56:07Z</time></trkpt><trkpt lat="44.35833534315005" lon="10.851388298203172"><ele>842.0</ele><time>2026-05-01T08:56:08Z</time></trkpt><trkpt lat="44.358443818269166" lon="10.851412009680281"><ele>842.0000000000001</ele><time>2026-05-01T08:56:10Z</time></trkpt><trkpt lat="44.358519173453615" lon="10.851390247656015"><ele>842.0</ele><time>2026-05-01T08:56:11Z</time></trkpt><trkpt lat="44.35858406992316" lon="10.851406019237691"><ele>842.0</ele><time>2026-05-01T08:56:12Z</time></trkpt><trkpt lat="44.358658636830114" lon="10.851354230028528"><ele>842.0</ele><time>2026-05-01T08:56:14Z</time></trkpt><trkpt lat="44.35876096942047" lon="10.851341959013467"><ele>842.0000000000001</ele><time>2026-05-01T08:56:16Z</time></trkpt><trkpt lat="44.35884110603683" lon="10.851325133018575"><ele>842.0</ele><time>2026-05-01T08:56:17Z</time></trkpt><trkpt lat="44.3589064570748" lon="10.851315501930566"><ele>841.5000000000001</ele><time>2026-05-01T08:56:18Z</time></trkpt><trkpt lat="44.358981035394514" lon="10.851300653957999"><ele>841.0</ele><time>2026-05-01T08:56:19Z</time></trkpt><trkpt lat="44.35907758658745" lon="10.851283814589808"><ele>840.5</ele><time>2026-05-01T08:56:21Z</time></trkpt><trkpt lat="44.35916013662365" lon="10.851274145445652"><ele>840.0</ele><time>2026-05-01T08:56:23Z</time></trkpt><trkpt lat="44.35924316858976" lon="10.85127266320578"><ele>839.5000000000001</ele><time>2026-05-01T08:56:26Z</time></trkpt><trkpt lat="44.35932064245442" lon="10.851301257614486"><ele>839.0</ele><time>2026-05-01T08:56:29Z</time></trkpt><trkpt lat="44.359415565641335" lon="10.85138875562386"><ele>839.0000000000001</ele><time>2026-05-01T08:56:31.999Z</time></trkpt><trkpt lat="44.35943010278654" lon="10.851527017949836"><ele>839.0</ele><time>2026-05-01T08:56:34.999Z</time></trkpt><trkpt lat="44.35935442960356" lon="10.851669434149597"><ele>839.0</ele><time>2026-05-01T08:56:36.999Z</time></trkpt><trkpt lat="44.35929840075806" lon="10.851742527530394"><ele>839.0</ele><time>2026-05-01T08:56:37.999Z</time></trkpt><trkpt lat="44.359238072263054" lon="10.851791548658015"><ele>839.0000000000001</ele><time>2026-05-01T08:56:38.999Z</time></trkpt><trkpt lat="44.35917551768765" lon="10.851850261741797"><ele>839.0</ele><time>2026-05-01T08:56:39.999Z</time></trkpt><trkpt lat="44.35909076488085" lon="10.851962982081886"><ele>836.3333333333334</ele><time>2026-05-01T08:56:41.999Z</time></trkpt><trkpt lat="44.35897332699624" lon="10.85207589990043"><ele>833.6666666666667</ele><time>2026-05-01T08:56:43.999Z</time></trkpt><trkpt lat="44.35891346168139" lon="10.852105874015734"><ele>831.0</ele><time>2026-05-01T08:56:44.999Z</time></trkpt><trkpt lat="44.35884682995574" lon="10.852152252534767"><ele>828.3333333333333</ele><time>2026-05-01T08:56:45.999Z</time></trkpt><trkpt lat="44.35877410466249" lon="10.852185668288858"><ele>825.6666666666666</ele><time>2026-05-01T08:56:46.999Z</time></trkpt><trkpt lat="44.3586983802274" lon="10.852227896658814"><ele>823.0</ele><time>2026-05-01T08:56:47.999Z</time></trkpt><trkpt lat="44.35861802841556" lon="10.85227757785575"><ele>822.9999999999999</ele><time>2026-05-01T08:56:48.999Z</time></trkpt><trkpt lat="44.35855995642279" lon="10.852314870044648"><ele>823.0</ele><time>2026-05-01T08:56:49.999Z</time></trkpt><trkpt lat="44.35848334137633" lon="10.852346570851441"><ele>823.0</ele><time>2026-05-01T08:56:50.999Z</time></trkpt><trkpt lat="44.35842460131359" lon="10.852384738228663"><ele>823.0</ele><time>2026-05-01T08:56:51.999Z</time></trkpt><trkpt lat="44.35831977532662" lon="10.852439975708117"><ele>822.9999999999999</ele><time>2026-05-01T08:56:53.999Z</time></trkpt><trkpt lat="44.358250234641105" lon="10.852495383722411"><ele>823.0</ele><time>2026-05-01T08:56:54.999Z</time></trkpt><trkpt lat="44.3581734160249" lon="10.852560448601851"><ele>823.0</ele><time>2026-05-01T08:56:56.999Z</time></trkpt><trkpt lat="44.35805541204043" lon="10.85259836461578"><ele>823.0</ele><time>2026-05-01T08:56:58.999Z</time></trkpt><trkpt lat="44.357968243671756" lon="10.852664641398883"><ele>823.0</ele><time>2026-05-01T08:57:00.999Z</time></trkpt><trkpt lat="44.35788313647362" lon="10.852746713665017"><ele>823.0</ele><time>2026-05-01T08:57:02.999Z</time></trkpt><trkpt lat="44.357787324442604" lon="10.852833379999948"><ele>823.0</ele><time>2026-05-01T08:57:04.999Z</time></trkpt><trkpt lat="44.35768244559916" lon="10.852887436277681"><ele>822.3333333333333</ele><time>2026-05-01T08:57:06.999Z</time></trkpt><trkpt lat="44.35761149762829" lon="10.852928075641795"><ele>821.6666666666666</ele><time>2026-05-01T08:57:07.999Z</time></trkpt><trkpt lat="44.35750240634263" lon="10.852994974093342"><ele>821.0</ele><time>2026-05-01T08:57:09.999Z</time></trkpt><trkpt lat="44.35744359390869" lon="10.853034731795319"><ele>820.3333333333333</ele><time>2026-05-01T08:57:10.999Z</time></trkpt><trkpt lat="44.35738577427689" lon="10.853077012613662"><ele>819.6666666666666</ele><time>2026-05-01T08:57:11.999Z</time></trkpt><trkpt lat="44.35727797583141" lon="10.853122306969498"><ele>819.0</ele><time>2026-05-01T08:57:13.999Z</time></trkpt><trkpt lat="44.35717776990349" lon="10.853230168586519"><ele>819.0</ele><time>2026-05-01T08:57:15.999Z</time></trkpt><trkpt lat="44.35712260934802" lon="10.85328769138623"><ele>819.0</ele><time>2026-05-01T08:57:16.999Z</time></trkpt><trkpt lat="44.35702420549169" lon="10.853362798984975"><ele>819.0</ele><time>2026-05-01T08:57:18.999Z</time></trkpt><trkpt lat="44.35692194345584" lon="10.853419527730958"><ele>819.0</ele><time>2026-05-01T08:57:20.999Z</time></trkpt><trkpt lat="44.356827024186096" lon="10.853489601225272"><ele>819.0</ele><time>2026-05-01T08:57:22.999Z</time></trkpt><trkpt lat="44.356747905403374" lon="10.853548850209844"><ele>811.6</ele><time>2026-05-01T08:57:24.999Z</time></trkpt><trkpt lat="44.35669346640703" lon="10.853639734283373"><ele>804.2</ele><time>2026-05-01T08:57:26.999Z</time></trkpt><trkpt lat="44.356653880362906" lon="10.853741942447174"><ele>796.8000000000001</ele><time>2026-05-01T08:57:27.999Z</time></trkpt><trkpt lat="44.35659252209948" lon="10.853838283459146"><ele>789.4000000000001</ele><time>2026-05-01T08:57:29.999Z</time></trkpt><trkpt lat="44.356533770348264" lon="10.853956415395343"><ele>782.0</ele><time>2026-05-01T08:57:31.999Z</time></trkpt><trkpt lat="44.35655918585258" lon="10.85408795643982"><ele>782.0000000000001</ele><time>2026-05-01T08:57:34.999Z</time></trkpt><trkpt lat="44.35662510269757" lon="10.854191926118666"><ele>782.0</ele><time>2026-05-01T08:57:36.999Z</time></trkpt><trkpt lat="44.35668010183608" lon="10.854274867532881"><ele>782.0</ele><time>2026-05-01T08:57:38.999Z</time></trkpt><trkpt lat="44.35661871927191" lon="10.854382110850288"><ele>782.0</ele><time>2026-05-01T08:57:40.999Z</time></trkpt><trkpt lat="44.35656777616055" lon="10.854455396742653"><ele>782.0000000000001</ele><time>2026-05-01T08:57:41.999Z</time></trkpt><trkpt lat="44.35650221231229" lon="10.85452736269838"><ele>782.0</ele><time>2026-05-01T08:57:42.999Z</time></trkpt><trkpt lat="44.35645005302745" lon="10.854597068448234"><ele>779.5000000000001</ele><time>2026-05-01T08:57:43.999Z</time></trkpt><trkpt lat="44.35639850617455" lon="10.854665428778642"><ele>777.0</ele><time>2026-05-01T08:57:44.998Z</time></trkpt><trkpt lat="44.35631100359024" lon="10.85476666345516"><ele>774.5</ele><time>2026-05-01T08:57:46.998Z</time></trkpt><trkpt lat="44.3562431693469" lon="10.854881150985932"><ele>772.0</ele><time>2026-05-01T08:57:48.998Z</time></trkpt><trkpt lat="44.35620222250787" lon="10.854948899472866"><ele>769.5</ele><time>2026-05-01T08:57:49.998Z</time></trkpt><trkpt lat="44.35616159975179" lon="10.855017333331832"><ele>767.0</ele><time>2026-05-01T08:57:50.998Z</time></trkpt><trkpt lat="44.35612119127825" lon="10.855085416404597"><ele>762.8571428571429</ele><time>2026-05-01T08:57:51.998Z</time></trkpt><trkpt lat="44.35607565943061" lon="10.855155195623064"><ele>758.7142857142858</ele><time>2026-05-01T08:57:52.998Z</time></trkpt><trkpt lat="44.356038335762385" lon="10.8552310519942"><ele>754.5714285714286</ele><time>2026-05-01T08:57:53.998Z</time></trkpt><trkpt lat="44.35599803496474" lon="10.855316101851672"><ele>750.4285714285714</ele><time>2026-05-01T08:57:54.998Z</time></trkpt><trkpt lat="44.355965870457396" lon="10.855413962157604"><ele>746.2857142857142</ele><time>2026-05-01T08:57:55.998Z</time></trkpt><trkpt lat="44.355937376483766" lon="10.855513085404958"><ele>742.1428571428571</ele><time>2026-05-01T08:57:56.998Z</time></trkpt><trkpt lat="44.35590283503834" lon="10.855621121609616"><ele>738.0</ele><time>2026-05-01T08:57:57.998Z</time></trkpt><trkpt lat="44.35587034270336" lon="10.85572487551996"><ele>738.0</ele><time>2026-05-01T08:57:58.998Z</time></trkpt><trkpt lat="44.35582850907378" lon="10.855830583799614"><ele>738.0</ele><time>2026-05-01T08:57:59.998Z</time></trkpt><trkpt lat="44.35578495418533" lon="10.855931195752772"><ele>738.0</ele><time>2026-05-01T08:58:00.998Z</time></trkpt><trkpt lat="44.35574383604096" lon="10.856013533204186"><ele>738.0</ele><time>2026-05-01T08:58:01.998Z</time></trkpt><trkpt lat="44.355700518823014" lon="10.856111021261123"><ele>738.0</ele><time>2026-05-01T08:58:02.998Z</time></trkpt><trkpt lat="44.35566378439524" lon="10.85620516878153"><ele>738.0</ele><time>2026-05-01T08:58:03.998Z</time></trkpt><trkpt lat="44.3556270481407" lon="10.85629368935049"><ele>735.8333333333334</ele><time>2026-05-01T08:58:04.998Z</time></trkpt><trkpt lat="44.35559732079563" lon="10.856376340716457"><ele>733.6666666666666</ele><time>2026-05-01T08:58:06Z</time></trkpt><trkpt lat="44.35555191315915" lon="10.856483783322899"><ele>731.5</ele><time>2026-05-01T08:58:08Z</time></trkpt><trkpt lat="44.35555405769343" lon="10.856579323722647"><ele>729.3333333333333</ele><time>2026-05-01T08:58:11Z</time></trkpt><trkpt lat="44.35557704705616" lon="10.856668779450137"><ele>727.1666666666666</ele><time>2026-05-01T08:58:19Z</time></trkpt><trkpt lat="44.35561422302539" lon="10.856775254252083"><ele>725.0</ele><time>2026-05-01T08:58:20Z</time></trkpt><trkpt lat="44.355680411045626" lon="10.856897687762041"><ele>724.4</ele><time>2026-05-01T08:58:21Z</time></trkpt><trkpt lat="44.35575861891336" lon="10.857052422560475"><ele>723.8</ele><time>2026-05-01T08:58:22Z</time></trkpt><trkpt lat="44.35581745417748" lon="10.85716055406732"><ele>723.2</ele><time>2026-05-01T08:58:23Z</time></trkpt><trkpt lat="44.355866334432726" lon="10.857253527211503"><ele>722.6</ele><time>2026-05-01T08:58:24Z</time></trkpt><trkpt lat="44.35589889333744" lon="10.857356446870327"><ele>722.0</ele><time>2026-05-01T08:58:25Z</time></trkpt><trkpt lat="44.35594720208368" lon="10.857421818790252"><ele>722.0</ele><time>2026-05-01T08:58:26Z</time></trkpt><trkpt lat="44.355982960585514" lon="10.857501302950118"><ele>722.0</ele><time>2026-05-01T08:58:27Z</time></trkpt><trkpt lat="44.35602735289718" lon="10.857602799104146"><ele>722.0</ele><time>2026-05-01T08:58:29Z</time></trkpt><trkpt lat="44.3558869530755" lon="10.857702045899696"><ele>722.0</ele><time>2026-05-01T08:58:32Z</time></trkpt><trkpt lat="44.35580125105829" lon="10.85777549812773"><ele>722.0</ele><time>2026-05-01T08:58:33Z</time></trkpt><trkpt lat="44.35572516608764" lon="10.857845843138504"><ele>723.4000000000001</ele><time>2026-05-01T08:58:34Z</time></trkpt><trkpt lat="44.355668571068826" lon="10.857905260913983"><ele>724.8000000000001</ele><time>2026-05-01T08:58:35Z</time></trkpt><trkpt lat="44.355600155897996" lon="10.858008361699369"><ele>726.2</ele><time>2026-05-01T08:58:37Z</time></trkpt><trkpt lat="44.355554716562104" lon="10.858105489069441"><ele>727.6</ele><time>2026-05-01T08:58:40Z</time></trkpt><trkpt lat="44.35565231193689" lon="10.858325534210428"><ele>729.0</ele><time>2026-05-01T08:58:41Z</time></trkpt><trkpt lat="44.35567430082487" lon="10.858408439781865"><ele>731.2</ele><time>2026-05-01T08:58:42Z</time></trkpt><trkpt lat="44.35569829624683" lon="10.858502964363018"><ele>733.4000000000001</ele><time>2026-05-01T08:58:43Z</time></trkpt><trkpt lat="44.35573639341348" lon="10.858599776125185"><ele>735.6</ele><time>2026-05-01T08:58:44Z</time></trkpt><trkpt lat="44.35574786368008" lon="10.858729276013198"><ele>737.8</ele><time>2026-05-01T08:58:44.999Z</time></trkpt><trkpt lat="44.3557751384564" lon="10.85887817499155"><ele>740.0</ele><time>2026-05-01T08:58:45.999Z</time></trkpt><trkpt lat="44.35580505035349" lon="10.859030234388763"><ele>740.0</ele><time>2026-05-01T08:58:46.999Z</time></trkpt><trkpt lat="44.355832442908344" lon="10.859174985864763"><ele>740.0</ele><time>2026-05-01T08:58:47.999Z</time></trkpt><trkpt lat="44.355849126654206" lon="10.85933369590767"><ele>740.0</ele><time>2026-05-01T08:58:49.999Z</time></trkpt><trkpt lat="44.355842819623206" lon="10.85942286830373"><ele>740.0</ele><time>2026-05-01T08:58:50.999Z</time></trkpt><trkpt lat="44.355792631161556" lon="10.859529176467097"><ele>740.0</ele><time>2026-05-01T08:58:52.999Z</time></trkpt><trkpt lat="44.355711134137586" lon="10.85966680237289"><ele>739.5</ele><time>2026-05-01T08:58:54.999Z</time></trkpt><trkpt lat="44.35568089341841" lon="10.859768597028054"><ele>739.0</ele><time>2026-05-01T08:58:55.999Z</time></trkpt><trkpt lat="44.35563980823951" lon="10.859845036129144"><ele>738.5</ele><time>2026-05-01T08:58:56.999Z</time></trkpt><trkpt lat="44.355584642512085" lon="10.859924243783295"><ele>738.0</ele><time>2026-05-01T08:58:58.999Z</time></trkpt><trkpt lat="44.35554371838673" lon="10.860007204490406"><ele>737.5</ele><time>2026-05-01T08:59:00.999Z</time></trkpt><trkpt lat="44.35551526311687" lon="10.86010863827695"><ele>737.0</ele><time>2026-05-01T08:59:02.999Z</time></trkpt><trkpt lat="44.355769875809315" lon="10.860482857497406"><ele>737.5</ele><time>2026-05-01T08:59:04.999Z</time></trkpt><trkpt lat="44.355821234701324" lon="10.860589406359141"><ele>738.0</ele><time>2026-05-01T08:59:05.999Z</time></trkpt><trkpt lat="44.35586658060999" lon="10.860680202007925"><ele>738.5</ele><time>2026-05-01T08:59:06.999Z</time></trkpt><trkpt lat="44.35592235130117" lon="10.860784454687511"><ele>739.0</ele><time>2026-05-01T08:59:07.999Z</time></trkpt><trkpt lat="44.35597307064625" lon="10.860892201932625"><ele>739.5</ele><time>2026-05-01T08:59:08.999Z</time></trkpt><trkpt lat="44.35601535377334" lon="10.86100160406973"><ele>740.0</ele><time>2026-05-01T08:59:09.999Z</time></trkpt><trkpt lat="44.35605162645693" lon="10.861109916877943"><ele>740.0</ele><time>2026-05-01T08:59:10.999Z</time></trkpt><trkpt lat="44.35608377150372" lon="10.86121163703626"><ele>740.0</ele><time>2026-05-01T08:59:11.999Z</time></trkpt><trkpt lat="44.356132665273606" lon="10.861350384232262"><ele>740.0</ele><time>2026-05-01T08:59:13.999Z</time></trkpt><trkpt lat="44.35620990782748" lon="10.861439086709213"><ele>740.0</ele><time>2026-05-01T08:59:15.999Z</time></trkpt><trkpt lat="44.356288332851776" lon="10.861406855404379"><ele>740.0</ele><time>2026-05-01T08:59:17.999Z</time></trkpt><trkpt lat="44.3563512458507" lon="10.861318134021396"><ele>744.6</ele><time>2026-05-01T08:59:19.999Z</time></trkpt><trkpt lat="44.35644942925822" lon="10.86125839770133"><ele>749.2</ele><time>2026-05-01T08:59:21.999Z</time></trkpt><trkpt lat="44.35651868647364" lon="10.861224956094219"><ele>753.8</ele><time>2026-05-01T08:59:22.999Z</time></trkpt><trkpt lat="44.35662106032524" lon="10.861183235605095"><ele>758.4</ele><time>2026-05-01T08:59:23.999Z</time></trkpt><trkpt lat="44.356701237053066" lon="10.8611579774588"><ele>763.0</ele><time>2026-05-01T08:59:25.999Z</time></trkpt><trkpt lat="44.35667875540238" lon="10.861266211935149"><ele>763.0</ele><time>2026-05-01T08:59:27.999Z</time></trkpt><trkpt lat="44.356579970321015" lon="10.861259735176587"><ele>763.0</ele><time>2026-05-01T08:59:29.999Z</time></trkpt><trkpt lat="44.35649182393136" lon="10.86126414323299"><ele>763.0</ele><time>2026-05-01T08:59:31.999Z</time></trkpt><trkpt lat="44.35640488063072" lon="10.861316937926876"><ele>763.0</ele><time>2026-05-01T08:59:33.999Z</time></trkpt><trkpt lat="44.35632431790395" lon="10.861372314346973"><ele>763.0</ele><time>2026-05-01T08:59:35.999Z</time></trkpt><trkpt lat="44.356248401538224" lon="10.861418686649017"><ele>758.4</ele><time>2026-05-01T08:59:37.999Z</time></trkpt><trkpt lat="44.35618622439809" lon="10.861446325591572"><ele>753.8</ele><time>2026-05-01T08:59:41.999Z</time></trkpt><trkpt lat="44.35619579037527" lon="10.861552926557314"><ele>749.2</ele><time>2026-05-01T08:59:45.999Z</time></trkpt><trkpt lat="44.356254147990555" lon="10.861666479336119"><ele>744.6</ele><time>2026-05-01T08:59:47.999Z</time></trkpt><trkpt lat="44.35632050829099" lon="10.861801409166391"><ele>740.0</ele><time>2026-05-01T08:59:49.999Z</time></trkpt><trkpt lat="44.356336549325746" lon="10.861940157374459"><ele>737.6</ele><time>2026-05-01T08:59:51.999Z</time></trkpt><trkpt lat="44.356346531760806" lon="10.86204442626394"><ele>735.2</ele><time>2026-05-01T08:59:52.999Z</time></trkpt><trkpt lat="44.35634406570954" lon="10.86220574783393"><ele>732.8</ele><time>2026-05-01T08:59:54.999Z</time></trkpt><trkpt lat="44.35635678721527" lon="10.862351692067334"><ele>730.4</ele><time>2026-05-01T08:59:56.999Z</time></trkpt><trkpt lat="44.35639577769052" lon="10.86246532716788"><ele>728.0</ele><time>2026-05-01T08:59:58.998Z</time></trkpt><trkpt lat="44.356426825315175" lon="10.862550757112057"><ele>729.75</ele><time>2026-05-01T09:00:00.998Z</time></trkpt><trkpt lat="44.356471325535956" lon="10.8626737411662"><ele>731.5</ele><time>2026-05-01T09:00:02.998Z</time></trkpt><trkpt lat="44.356559399742096" lon="10.862815854715038"><ele>733.25</ele><time>2026-05-01T09:00:04.998Z</time></trkpt><trkpt lat="44.35660998893959" lon="10.862875329057436"><ele>735.0</ele><time>2026-05-01T09:00:05.998Z</time></trkpt><trkpt lat="44.35675061823728" lon="10.863014130665649"><ele>735.0</ele><time>2026-05-01T09:00:08.998Z</time></trkpt><trkpt lat="44.35684135882899" lon="10.863116238357357"><ele>735.0</ele><time>2026-05-01T09:00:10.998Z</time></trkpt><trkpt lat="44.356932164374804" lon="10.8631741056346"><ele>735.0</ele><time>2026-05-01T09:00:13Z</time></trkpt><trkpt lat="44.35699589161912" lon="10.863262007970432"><ele>735.0</ele><time>2026-05-01T09:00:15Z</time></trkpt><trkpt lat="44.35707900438907" lon="10.863325252951265"><ele>735.0</ele><time>2026-05-01T09:00:17Z</time></trkpt><trkpt lat="44.35714298415412" lon="10.86338791629394"><ele>731.8333333333334</ele><time>2026-05-01T09:00:19Z</time></trkpt><trkpt lat="44.357217437379894" lon="10.863453705034182"><ele>728.6666666666666</ele><time>2026-05-01T09:00:21Z</time></trkpt><trkpt lat="44.35727597386837" lon="10.863520451143513"><ele>725.5</ele><time>2026-05-01T09:00:23Z</time></trkpt><trkpt lat="44.357295140109485" lon="10.863623926601807"><ele>722.3333333333333</ele><time>2026-05-01T09:00:25Z</time></trkpt><trkpt lat="44.35722399027619" lon="10.863677945637036"><ele>719.1666666666666</ele><time>2026-05-01T09:00:27Z</time></trkpt><trkpt lat="44.357157482813534" lon="10.863724410075912"><ele>716.0</ele><time>2026-05-01T09:00:29Z</time></trkpt><trkpt lat="44.357247525918304" lon="10.863777019458125"><ele>716.0</ele><time>2026-05-01T09:00:32Z</time></trkpt><trkpt lat="44.357352837986426" lon="10.863788415795167"><ele>716.0</ele><time>2026-05-01T09:00:34Z</time></trkpt><trkpt lat="44.3574663532596" lon="10.863795535968844"><ele>716.0</ele><time>2026-05-01T09:00:36Z</time></trkpt><trkpt lat="44.35753439909573" lon="10.863798414154711"><ele>716.0</ele><time>2026-05-01T09:00:37Z</time></trkpt><trkpt lat="44.35760923026223" lon="10.863798549100977"><ele>716.0</ele><time>2026-05-01T09:00:38Z</time></trkpt><trkpt lat="44.35769025341747" lon="10.863778657876585"><ele>716.0</ele><time>2026-05-01T09:00:39Z</time></trkpt><trkpt lat="44.357768287498594" lon="10.863736349662503"><ele>716.0</ele><time>2026-05-01T09:00:40Z</time></trkpt><trkpt lat="44.35785254642005" lon="10.863693434683725"><ele>716.0</ele><time>2026-05-01T09:00:41Z</time></trkpt><trkpt lat="44.35794264287738" lon="10.863661504238268"><ele>716.0</ele><time>2026-05-01T09:00:42Z</time></trkpt><trkpt lat="44.35803030079757" lon="10.8636492117639"><ele>716.0</ele><time>2026-05-01T09:00:43Z</time></trkpt><trkpt lat="44.35811356900087" lon="10.863638136635876"><ele>716.0</ele><time>2026-05-01T09:00:44Z</time></trkpt><trkpt lat="44.35819926803038" lon="10.863637512608106"><ele>716.0</ele><time>2026-05-01T09:00:45Z</time></trkpt><trkpt lat="44.358286913799624" lon="10.863647178218246"><ele>714.75</ele><time>2026-05-01T09:00:46Z</time></trkpt><trkpt lat="44.35841758910935" lon="10.863675820953755"><ele>713.5</ele><time>2026-05-01T09:00:47Z</time></trkpt><trkpt lat="44.35858305522764" lon="10.863704241460253"><ele>712.25</ele><time>2026-05-01T09:00:48Z</time></trkpt><trkpt lat="44.35870795404012" lon="10.863756351129622"><ele>711.0</ele><time>2026-05-01T09:00:49Z</time></trkpt><trkpt lat="44.358815101220046" lon="10.863804022946702"><ele>712.5999999999999</ele><time>2026-05-01T09:00:50Z</time></trkpt><trkpt lat="44.35892962832463" lon="10.8638267309151"><ele>714.2</ele><time>2026-05-01T09:00:51Z</time></trkpt><trkpt lat="44.359017473440254" lon="10.86386360844221"><ele>715.8</ele><time>2026-05-01T09:00:52Z</time></trkpt><trkpt lat="44.359100348103325" lon="10.86389568030198"><ele>717.4000000000001</ele><time>2026-05-01T09:00:53Z</time></trkpt><trkpt lat="44.35918777080713" lon="10.863936315844398"><ele>719.0</ele><time>2026-05-01T09:00:54Z</time></trkpt><trkpt lat="44.359280553393" lon="10.863951487985904"><ele>719.0</ele><time>2026-05-01T09:00:55Z</time></trkpt><trkpt lat="44.35938730214435" lon="10.863943613892465"><ele>719.0</ele><time>2026-05-01T09:00:55.999Z</time></trkpt><trkpt lat="44.3595133856977" lon="10.863944618704645"><ele>719.0</ele><time>2026-05-01T09:00:56.999Z</time></trkpt><trkpt lat="44.35961006584811" lon="10.863970684073086"><ele>719.0</ele><time>2026-05-01T09:00:57.999Z</time></trkpt><trkpt lat="44.35968400195176" lon="10.863987354158738"><ele>719.0</ele><time>2026-05-01T09:00:58.999Z</time></trkpt><trkpt lat="44.35981412459204" lon="10.863940781705978"><ele>718.6666666666666</ele><time>2026-05-01T09:01:00.999Z</time></trkpt><trkpt lat="44.359888618923485" lon="10.863895262087391"><ele>718.3333333333333</ele><time>2026-05-01T09:01:01.999Z</time></trkpt><trkpt lat="44.35995748649922" lon="10.863857426531679"><ele>718.0</ele><time>2026-05-01T09:01:02.999Z</time></trkpt><trkpt lat="44.36003505447029" lon="10.86378653718665"><ele>717.6666666666666</ele><time>2026-05-01T09:01:03.999Z</time></trkpt><trkpt lat="44.36011177670924" lon="10.86369866045263"><ele>717.3333333333334</ele><time>2026-05-01T09:01:04.999Z</time></trkpt><trkpt lat="44.36017906439344" lon="10.863643196162833"><ele>717.0</ele><time>2026-05-01T09:01:05.999Z</time></trkpt><trkpt lat="44.360260179828614" lon="10.863577271379032"><ele>717.0</ele><time>2026-05-01T09:01:06.999Z</time></trkpt><trkpt lat="44.36033465301544" lon="10.863490250845475"><ele>717.0</ele><time>2026-05-01T09:01:07.999Z</time></trkpt><trkpt lat="44.36040066455083" lon="10.863397502275431"><ele>717.0</ele><time>2026-05-01T09:01:08.999Z</time></trkpt><trkpt lat="44.36044844940953" lon="10.863318737528738"><ele>717.0</ele><time>2026-05-01T09:01:09.999Z</time></trkpt><trkpt lat="44.360512307140176" lon="10.863176015124449"><ele>717.0</ele><time>2026-05-01T09:01:11.999Z</time></trkpt><trkpt lat="44.360571155852185" lon="10.863008407988428"><ele>716.3333333333334</ele><time>2026-05-01T09:01:13.999Z</time></trkpt><trkpt lat="44.36061076139392" lon="10.86290206176477"><ele>715.6666666666666</ele><time>2026-05-01T09:01:14.999Z</time></trkpt><trkpt lat="44.360645805092844" lon="10.862797050046952"><ele>715.0</ele><time>2026-05-01T09:01:15.999Z</time></trkpt><trkpt lat="44.360687583433474" lon="10.862681683552504"><ele>714.3333333333333</ele><time>2026-05-01T09:01:16.999Z</time></trkpt><trkpt lat="44.360721238673435" lon="10.862584747062996"><ele>713.6666666666666</ele><time>2026-05-01T09:01:17.999Z</time></trkpt><trkpt lat="44.36076706541489" lon="10.862461468423733"><ele>713.0</ele><time>2026-05-01T09:01:18.999Z</time></trkpt><trkpt lat="44.36079204650056" lon="10.862366746527556"><ele>714.8333333333333</ele><time>2026-05-01T09:01:19.999Z</time></trkpt><trkpt lat="44.360818126249455" lon="10.862270021420297"><ele>716.6666666666666</ele><time>2026-05-01T09:01:20.999Z</time></trkpt><trkpt lat="44.36083871735244" lon="10.86216867521251"><ele>718.5</ele><time>2026-05-01T09:01:21.999Z</time></trkpt><trkpt lat="44.360848383626184" lon="10.86205100201756"><ele>720.3333333333334</ele><time>2026-05-01T09:01:22.999Z</time></trkpt><trkpt lat="44.36085868888148" lon="10.861934148653484"><ele>722.1666666666667</ele><time>2026-05-01T09:01:23.999Z</time></trkpt><trkpt lat="44.36085956568999" lon="10.861794637176066"><ele>724.0</ele><time>2026-05-01T09:01:24.999Z</time></trkpt><trkpt lat="44.36085519668132" lon="10.86167087498145"><ele>725.5</ele><time>2026-05-01T09:01:25.999Z</time></trkpt><trkpt lat="44.36085202945036" lon="10.861555692755653"><ele>727.0</ele><time>2026-05-01T09:01:26.999Z</time></trkpt><trkpt lat="44.36085309520687" lon="10.861453870979211"><ele>728.5</ele><time>2026-05-01T09:01:27.999Z</time></trkpt><trkpt lat="44.360866058886835" lon="10.861354558123892"><ele>730.0</ele><time>2026-05-01T09:01:28.999Z</time></trkpt><trkpt lat="44.36087404058512" lon="10.861266886959092"><ele>731.5</ele><time>2026-05-01T09:01:29.999Z</time></trkpt><trkpt lat="44.360903347723365" lon="10.861144852424236"><ele>733.0</ele><time>2026-05-01T09:01:31.999Z</time></trkpt><trkpt lat="44.361004920121694" lon="10.861220431052203"><ele>733.0</ele><time>2026-05-01T09:01:33.999Z</time></trkpt><trkpt lat="44.36108064793397" lon="10.861244331315412"><ele>733.0</ele><time>2026-05-01T09:01:34.999Z</time></trkpt><trkpt lat="44.36116252353369" lon="10.861356130980184"><ele>733.0</ele><time>2026-05-01T09:01:35.999Z</time></trkpt><trkpt lat="44.36124822096724" lon="10.861485542522225"><ele>733.0</ele><time>2026-05-01T09:01:36.999Z</time></trkpt><trkpt lat="44.36134255929511" lon="10.86163813545845"><ele>729.5</ele><time>2026-05-01T09:01:37.999Z</time></trkpt><trkpt lat="44.361432322108406" lon="10.861782413207502"><ele>726.0</ele><time>2026-05-01T09:01:38.999Z</time></trkpt><trkpt lat="44.36151814789988" lon="10.861886195968953"><ele>722.5</ele><time>2026-05-01T09:01:39.999Z</time></trkpt><trkpt lat="44.36157181630452" lon="10.862027272904493"><ele>719.0</ele><time>2026-05-01T09:01:40.999Z</time></trkpt><trkpt lat="44.36162928823662" lon="10.862169958656388"><ele>719.0</ele><time>2026-05-01T09:01:41.999Z</time></trkpt><trkpt lat="44.36168733793323" lon="10.862313244234935"><ele>719.0</ele><time>2026-05-01T09:01:42.999Z</time></trkpt><trkpt lat="44.36174082200121" lon="10.862450616350303"><ele>719.0</ele><time>2026-05-01T09:01:43.999Z</time></trkpt><trkpt lat="44.36179361312163" lon="10.862590711711599"><ele>719.0</ele><time>2026-05-01T09:01:44.999Z</time></trkpt><trkpt lat="44.36184590629044" lon="10.86272198714047"><ele>716.6</ele><time>2026-05-01T09:01:45.999Z</time></trkpt><trkpt lat="44.36190107769296" lon="10.86284121454394"><ele>714.2</ele><time>2026-05-01T09:01:46.999Z</time></trkpt><trkpt lat="44.361961951729235" lon="10.862955578117386"><ele>711.8000000000001</ele><time>2026-05-01T09:01:47.999Z</time></trkpt><trkpt lat="44.36202236659264" lon="10.863061617347542"><ele>709.4000000000001</ele><time>2026-05-01T09:01:48.999Z</time></trkpt><trkpt lat="44.36211298979669" lon="10.863212388872785"><ele>707.0</ele><time>2026-05-01T09:01:49.999Z</time></trkpt><trkpt lat="44.36219791588393" lon="10.863315926379762"><ele>707.4000000000001</ele><time>2026-05-01T09:01:50.999Z</time></trkpt><trkpt lat="44.362264631356545" lon="10.863420147378044"><ele>707.8000000000001</ele><time>2026-05-01T09:01:51.999Z</time></trkpt><trkpt lat="44.36233216904282" lon="10.86351200815134"><ele>708.2</ele><time>2026-05-01T09:01:52.999Z</time></trkpt><trkpt lat="44.362395630971015" lon="10.863617270332412"><ele>708.6</ele><time>2026-05-01T09:01:53.999Z</time></trkpt><trkpt lat="44.362483014814266" lon="10.863680235782013"><ele>709.0</ele><time>2026-05-01T09:01:54.999Z</time></trkpt><trkpt lat="44.362565474459764" lon="10.86375041313121"><ele>709.0</ele><time>2026-05-01T09:01:55.999Z</time></trkpt><trkpt lat="44.3626567983366" lon="10.863812686169043"><ele>709.0</ele><time>2026-05-01T09:01:56.999Z</time></trkpt><trkpt lat="44.3627632124424" lon="10.86389645161477"><ele>709.0</ele><time>2026-05-01T09:01:57.999Z</time></trkpt><trkpt lat="44.36286369708" lon="10.863957248116453"><ele>709.0</ele><time>2026-05-01T09:01:58.999Z</time></trkpt><trkpt lat="44.36295671081977" lon="10.864016178612385"><ele>709.0</ele><time>2026-05-01T09:01:59.999Z</time></trkpt><trkpt lat="44.363048092354624" lon="10.864064385659656"><ele>711.2</ele><time>2026-05-01T09:02:00.999Z</time></trkpt><trkpt lat="44.363121008576556" lon="10.864105678566316"><ele>713.4000000000001</ele><time>2026-05-01T09:02:01.999Z</time></trkpt><trkpt lat="44.36317677243233" lon="10.864172254085945"><ele>715.6</ele><time>2026-05-01T09:02:02.999Z</time></trkpt><trkpt lat="44.36323478899168" lon="10.864223097770045"><ele>717.8</ele><time>2026-05-01T09:02:03.999Z</time></trkpt><trkpt lat="44.36337809128149" lon="10.864249712058477"><ele>720.0</ele><time>2026-05-01T09:02:05.999Z</time></trkpt><trkpt lat="44.36347269993779" lon="10.864259063072494"><ele>720.0</ele><time>2026-05-01T09:02:06.999Z</time></trkpt><trkpt lat="44.36356636721466" lon="10.864288872719126"><ele>720.0</ele><time>2026-05-01T09:02:07.999Z</time></trkpt><trkpt lat="44.363661468632756" lon="10.864311944936697"><ele>720.0</ele><time>2026-05-01T09:02:08.999Z</time></trkpt><trkpt lat="44.36375674514943" lon="10.86430500813704"><ele>720.0</ele><time>2026-05-01T09:02:09.998Z</time></trkpt><trkpt lat="44.363850826840476" lon="10.864278006469414"><ele>720.0</ele><time>2026-05-01T09:02:10.998Z</time></trkpt><trkpt lat="44.36391556922815" lon="10.864268278198184"><ele>720.0</ele><time>2026-05-01T09:02:11.998Z</time></trkpt><trkpt lat="44.36398402417888" lon="10.864243151285436"><ele>719.6666666666666</ele><time>2026-05-01T09:02:12.998Z</time></trkpt><trkpt lat="44.36405686932848" lon="10.864190051316514"><ele>719.3333333333334</ele><time>2026-05-01T09:02:13.998Z</time></trkpt><trkpt lat="44.3641108145245" lon="10.864115764415562"><ele>719.0</ele><time>2026-05-01T09:02:14.998Z</time></trkpt><trkpt lat="44.364201733094276" lon="10.863971050299144"><ele>718.6666666666667</ele><time>2026-05-01T09:02:16.998Z</time></trkpt><trkpt lat="44.36425287069761" lon="10.86390387613671"><ele>718.3333333333334</ele><time>2026-05-01T09:02:18Z</time></trkpt><trkpt lat="44.364319152654915" lon="10.863835353085117"><ele>718.0</ele><time>2026-05-01T09:02:19Z</time></trkpt><trkpt lat="44.3643881149306" lon="10.863786442545551"><ele>718.0</ele><time>2026-05-01T09:02:20Z</time></trkpt><trkpt lat="44.36445105464393" lon="10.863767636913815"><ele>718.0</ele><time>2026-05-01T09:02:21Z</time></trkpt><trkpt lat="44.36453807126985" lon="10.863766110816162"><ele>718.0</ele><time>2026-05-01T09:02:22Z</time></trkpt><trkpt lat="44.36461342947218" lon="10.863719817118659"><ele>718.0</ele><time>2026-05-01T09:02:23Z</time></trkpt><trkpt lat="44.36467335119796" lon="10.863645695686436"><ele>718.0</ele><time>2026-05-01T09:02:24Z</time></trkpt><trkpt lat="44.36474381243211" lon="10.863562163862039"><ele>718.0</ele><time>2026-05-01T09:02:25Z</time></trkpt><trkpt lat="44.36481634549977" lon="10.863499049656152"><ele>714.4</ele><time>2026-05-01T09:02:26Z</time></trkpt><trkpt lat="44.364892239490736" lon="10.863424647070856"><ele>710.8</ele><time>2026-05-01T09:02:27Z</time></trkpt><trkpt lat="44.36496791737792" lon="10.863355125515165"><ele>707.2</ele><time>2026-05-01T09:02:28Z</time></trkpt><trkpt lat="44.36503849372088" lon="10.863286867219184"><ele>703.6</ele><time>2026-05-01T09:02:29Z</time></trkpt><trkpt lat="44.36511677527547" lon="10.863200981723145"><ele>700.0</ele><time>2026-05-01T09:02:30Z</time></trkpt><trkpt lat="44.365194526528555" lon="10.86312913818433"><ele>700.0</ele><time>2026-05-01T09:02:31Z</time></trkpt><trkpt lat="44.36526898808266" lon="10.863071852318456"><ele>700.0</ele><time>2026-05-01T09:02:32Z</time></trkpt><trkpt lat="44.36533329878953" lon="10.863025512837028"><ele>700.0</ele><time>2026-05-01T09:02:33Z</time></trkpt><trkpt lat="44.36539749130729" lon="10.862992122544165"><ele>700.0</ele><time>2026-05-01T09:02:34Z</time></trkpt><trkpt lat="44.36550489236422" lon="10.862986371628887"><ele>700.0</ele><time>2026-05-01T09:02:36Z</time></trkpt><trkpt lat="44.36556221715337" lon="10.863103339501578"><ele>700.0</ele><time>2026-05-01T09:02:38Z</time></trkpt><trkpt lat="44.36551275302538" lon="10.863173042616205"><ele>700.0</ele><time>2026-05-01T09:02:39Z</time></trkpt><trkpt lat="44.3654728719001" lon="10.863315203914134"><ele>700.0</ele><time>2026-05-01T09:02:41Z</time></trkpt><trkpt lat="44.36549338335082" lon="10.863414927783147"><ele>700.0</ele><time>2026-05-01T09:02:42Z</time></trkpt><trkpt lat="44.36553632054645" lon="10.863504724599053"><ele>700.0</ele><time>2026-05-01T09:02:43Z</time></trkpt><trkpt lat="44.3656316142044" lon="10.863561912705366"><ele>700.0</ele><time>2026-05-01T09:02:44Z</time></trkpt><trkpt lat="44.365708736626566" lon="10.863725324096361"><ele>695.25</ele><time>2026-05-01T09:02:45Z</time></trkpt><trkpt lat="44.36581206739972" lon="10.863882880408411"><ele>690.5</ele><time>2026-05-01T09:02:46Z</time></trkpt><trkpt lat="44.365893496308026" lon="10.864032323330294"><ele>685.75</ele><time>2026-05-01T09:02:47Z</time></trkpt><trkpt lat="44.36597203682924" lon="10.86416121694865"><ele>681.0</ele><time>2026-05-01T09:02:48Z</time></trkpt><trkpt lat="44.36603066478688" lon="10.86428052388088"><ele>679.5999999999999</ele><time>2026-05-01T09:02:49Z</time></trkpt><trkpt lat="44.366091972853795" lon="10.864389727311769"><ele>678.2</ele><time>2026-05-01T09:02:50Z</time></trkpt><trkpt lat="44.36612403672403" lon="10.864504024664154"><ele>676.8</ele><time>2026-05-01T09:02:51Z</time></trkpt><trkpt lat="44.36615835199198" lon="10.8646106614737"><ele>675.4000000000001</ele><time>2026-05-01T09:02:52Z</time></trkpt><trkpt lat="44.36617684697019" lon="10.864726052506466"><ele>674.0</ele><time>2026-05-01T09:02:53Z</time></trkpt><trkpt lat="44.366110543212564" lon="10.864848300638565"><ele>674.0</ele><time>2026-05-01T09:02:54Z</time></trkpt><trkpt lat="44.36605181382579" lon="10.865000671128998"><ele>674.0</ele><time>2026-05-01T09:02:55Z</time></trkpt><trkpt lat="44.366001262426984" lon="10.865140531041742"><ele>674.0</ele><time>2026-05-01T09:02:56Z</time></trkpt><trkpt lat="44.365920400072156" lon="10.865241709473157"><ele>674.0</ele><time>2026-05-01T09:02:57Z</time></trkpt><trkpt lat="44.3658479055242" lon="10.865345949909399"><ele>674.0</ele><time>2026-05-01T09:02:58Z</time></trkpt><trkpt lat="44.365788090205974" lon="10.865467151544152"><ele>671.6</ele><time>2026-05-01T09:02:59Z</time></trkpt><trkpt lat="44.36572562378846" lon="10.8655730747991"><ele>669.2</ele><time>2026-05-01T09:03:00Z</time></trkpt><trkpt lat="44.36565751757251" lon="10.865680355402747"><ele>666.8000000000001</ele><time>2026-05-01T09:03:01Z</time></trkpt><trkpt lat="44.36563106199329" lon="10.86582295604068"><ele>664.4000000000001</ele><time>2026-05-01T09:03:02Z</time></trkpt><trkpt lat="44.36559660757354" lon="10.865956959733808"><ele>662.0</ele><time>2026-05-01T09:03:02.999Z</time></trkpt><trkpt lat="44.36557888287159" lon="10.866078754521626"><ele>660.2</ele><time>2026-05-01T09:03:03.999Z</time></trkpt><trkpt lat="44.36553124812134" lon="10.866199991909713"><ele>658.4000000000001</ele><time>2026-05-01T09:03:04.999Z</time></trkpt><trkpt lat="44.36548055865568" lon="10.866301438005202"><ele>656.5999999999999</ele><time>2026-05-01T09:03:05.999Z</time></trkpt><trkpt lat="44.365408038873205" lon="10.86637081456702"><ele>654.8</ele><time>2026-05-01T09:03:06.999Z</time></trkpt><trkpt lat="44.36533177842115" lon="10.866448956586774"><ele>653.0</ele><time>2026-05-01T09:03:07.999Z</time></trkpt><trkpt lat="44.36527049032729" lon="10.866545502067305"><ele>651.2</ele><time>2026-05-01T09:03:08.999Z</time></trkpt><trkpt lat="44.365203938876284" lon="10.866619838074811"><ele>649.4</ele><time>2026-05-01T09:03:09.999Z</time></trkpt><trkpt lat="44.365147660561526" lon="10.866688127218628"><ele>647.6</ele><time>2026-05-01T09:03:10.999Z</time></trkpt><trkpt lat="44.36512568773046" lon="10.866772765730344"><ele>645.8000000000001</ele><time>2026-05-01T09:03:11.999Z</time></trkpt><trkpt lat="44.36500068927024" lon="10.866767530891602"><ele>644.0</ele><time>2026-05-01T09:03:13.999Z</time></trkpt><trkpt lat="44.36485254355657" lon="10.86676252431697"><ele>644.0</ele><time>2026-05-01T09:03:15.999Z</time></trkpt><trkpt lat="44.36471617023018" lon="10.866750926592173"><ele>644.0</ele><time>2026-05-01T09:03:16.999Z</time></trkpt><trkpt lat="44.36461050971334" lon="10.866739428172613"><ele>644.0</ele><time>2026-05-01T09:03:17.999Z</time></trkpt><trkpt lat="44.36453371767487" lon="10.866728930651867"><ele>644.0</ele><time>2026-05-01T09:03:18.999Z</time></trkpt><trkpt lat="44.36446631211668" lon="10.866719716264189"><ele>644.0</ele><time>2026-05-01T09:03:20.999Z</time></trkpt><trkpt lat="44.3643901441367" lon="10.866710417536098"><ele>644.0</ele><time>2026-05-01T09:03:23.999Z</time></trkpt><trkpt lat="44.36432036209808" lon="10.866703412470127"><ele>644.0</ele><time>2026-05-01T09:03:25.999Z</time></trkpt><trkpt lat="44.36423499352991" lon="10.866696363392695"><ele>644.0</ele><time>2026-05-01T09:03:28.999Z</time></trkpt><trkpt lat="44.364159697111646" lon="10.866695881678055"><ele>644.0</ele><time>2026-05-01T09:03:31.999Z</time></trkpt><trkpt lat="44.36408886290359" lon="10.866709748046954"><ele>644.0</ele><time>2026-05-01T09:03:34.999Z</time></trkpt></trkseg></trk></gpx>